Home > Products > Valid Products > MTR

000
SAUS46 KLOX 010315
MTRMWS
METAR KMWS 010300Z  0003G07KT 11/03 RMK SNOW DEPTH 2.00





000
SAUS46 KLOX 010259
MTR9L2
METAR K9L2 010255Z AUTO 27023G33KT 10SM CLR 17/00 A2992 RMK AO2 PK
WND 27034/0224 SLP123 T01720000 55000 $





000
SAUS46 KLOX 010254
MTRMWS
METAR KMWS 010245Z 33504G07KT 12/05 RMK SNOW DEPTH 2.00





000
SAUS46 KLOX 010250
MTRSDB
METAR KSDB 010248Z AUTO 32027G32KT 10SM CLR 12/01 A3007 RMK AO2 PK
WND 34041/0220 SLP151 T01220011 55001





000
SAUS46 KLOX 010249
MTRCQT
METAR KCQT 010247Z AUTO 28004KT 10SM CLR 18/13 A2995 RMK AO2 SLP140
T01780128 53004





000
SAUS46 KLOX 010236
MTRMWS
METAR KMWS 010230Z 23500G00KT MM/04 RMK SNOW DEPTH 2.00





000
SAUS46 KLOX 010215
MTRMWS
METAR KMWS 010200Z 01501G02KT 13/06 RMK SNOW DEPTH 2.00





000
SAUS46 KLOX 010159
MTR9L2
METAR K9L2 010155Z AUTO 27024G33KT 10SM CLR 19/M02 A2991 RMK AO2 PK
WND 27034/0140 SLP122 T01941022 $





000
SAUS46 KLOX 010159
MTR9L2
METAR K9L2 010155Z AUTO 27024G33KT 10SM CLR 19/M02 A2991 RMK AO2 PK
WND 27034/0140 SLP122 T01941022 $





000
SAUS46 KLOX 010154
MTRMWS
METAR KMWS 010145Z 32502G04KT 15/06 RMK SNOW DEPTH 2.00





000
SAUS46 KLOX 010154
MTRMWS
METAR KMWS 010145Z 32502G04KT 15/06 RMK SNOW DEPTH 2.00





000
SAUS46 KLOX 010149
MTRSDB
METAR KSDB 010148Z AUTO 34021G32KT 10SM CLR 13/M01 A3006 RMK AO2 PK
WND 34032/0144 SLP146 T01331011





000
SAUS46 KLOX 010149
MTRCQT
METAR KCQT 010147Z AUTO 29004KT 8SM CLR 19/13 A2993 RMK AO2 SLP134
T01890128





000
SAUS46 KLOX 010136
MTRMWS
METAR KMWS 010130Z 23500G00KT MM/07 RMK SNOW DEPTH 3.00





000
SAUS46 KLOX 010136
MTRMWS
METAR KMWS 010130Z 23500G00KT MM/07 RMK SNOW DEPTH 3.00





000
SAUS46 KLOX 010115
MTRMWS
METAR KMWS 010100Z 35002G03KT 17/09 RMK SNOW DEPTH 3.00





000
SAUS46 KLOX 010059
MTR9L2
METAR K9L2 010055Z AUTO 26023G30KT 10SM CLR 22/M04 A2992 RMK AO2 PK
WND 27032/0002 SLP124 T02171044 $





000
SAUS46 KLOX 010054
MTRMWS
METAR KMWS 010045Z 24501G03KT 17/09 RMK SNOW DEPTH 3.00





000
SAUS46 KLOX 010054
MTRMWS
METAR KMWS 010045Z 24501G03KT 17/09 RMK SNOW DEPTH 3.00





000
SAUS46 KLOX 010049
MTRSDB
METAR KSDB 010048Z AUTO 35019G30KT 10SM CLR 15/M03 A3007 RMK AO2 PK
WND 33031/0005 SLP149 T01501028





000
SAUS46 KLOX 010049
MTRSDB
METAR KSDB 010048Z AUTO 35019G30KT 10SM CLR 15/M03 A3007 RMK AO2 PK
WND 33031/0005 SLP149 T01501028





000
SAUS46 KLOX 010048
MTRCQT
METAR KCQT 010047Z AUTO 00000KT 8SM CLR 21/13 A2994 RMK AO2 SLP136
T02060128





000
SAUS46 KLOX 010036
MTRMWS
METAR KMWS 010030Z 23500G00KT MM/10 RMK SNOW DEPTH 3.00





000
SAUS46 KLOX 010015
MTRMWS
METAR KMWS 010000Z 24003G05KT 17/09 RMK SNOW DEPTH 3.00





000
SAUS46 KLOX 010015
MTRMWS
METAR KMWS 010000Z 24003G05KT 17/09 RMK SNOW DEPTH 3.00





000
SAUS46 KLOX 312359
MTR9L2
METAR K9L2 312355Z AUTO 27024G31KT 10SM CLR 23/M04 A2992 RMK AO2 PK
WND 27034/2310 SLP123 T02331039 10261 20233 56010 $





000
SAUS46 KLOX 312359
MTR9L2
METAR K9L2 312355Z AUTO 27024G31KT 10SM CLR 23/M04 A2992 RMK AO2 PK
WND 27034/2310 SLP123 T02331039 10261 20233 56010 $





000
SAUS46 KLOX 312354
MTRMWS
METAR KMWS 312345Z 22004G06KT 17/09 RMK SNOW DEPTH 3.00





000
SAUS46 KLOX 312354
MTRMWS
METAR KMWS 312345Z 22004G06KT 17/09 RMK SNOW DEPTH 3.00





000
SAUS46 KLOX 312349
MTRSDB
METAR KSDB 312348Z AUTO 34027G34KT 10SM CLR 16/M03 A3007 RMK AO2 PK
WND 33034/2313 SLP144 T01611028 10172 20150 56016





000
SAUS46 KLOX 312349
MTRCQT
METAR KCQT 312347Z AUTO 10SM CLR 21/13 A2994 RMK AO2 SLP136
T02110128 10228 20194 56017





000
SAUS46 KLOX 312349
MTRCQT
METAR KCQT 312347Z AUTO 10SM CLR 21/13 A2994 RMK AO2 SLP136
T02110128 10228 20194 56017





000
SAUS46 KLOX 312349
MTRSDB
METAR KSDB 312348Z AUTO 34027G34KT 10SM CLR 16/M03 A3007 RMK AO2 PK
WND 33034/2313 SLP144 T01611028 10172 20150 56016





000
SAUS46 KLOX 312336
MTRMWS
METAR KMWS 312330Z 23500G00KT MM/09 RMK SNOW DEPTH 3.00





000
SAUS46 KLOX 312336
MTRMWS
METAR KMWS 312330Z 23500G00KT MM/09 RMK SNOW DEPTH 3.00





000
SAUS46 KLOX 312315
MTRMWS
METAR KMWS 312300Z 23004G09KT 18/08 RMK SNOW DEPTH 3.00





000
SAUS46 KLOX 312315
MTRMWS
METAR KMWS 312300Z 23004G09KT 18/08 RMK SNOW DEPTH 3.00





000
SAUS46 KLOX 312259
MTR9L2
METAR K9L2 312255Z AUTO 28019G29KT 10SM CLR 25/M04 A2993 RMK AO2 PK
WND 27034/2227 SLP124 T02501039 $





000
SAUS46 KLOX 312254
MTRMWS
METAR KMWS 312245Z 22005G07KT 17/08 RMK SNOW DEPTH 4.00





000
SAUS46 KLOX 312254
MTRMWS
METAR KMWS 312245Z 22005G07KT 17/08 RMK SNOW DEPTH 4.00





000
SAUS46 KLOX 312249
MTRSDB
METAR KSDB 312248Z AUTO 34024G34KT 10SM CLR 17/M03 A3009 RMK AO2 PK
WND 33035/2202 SLP149 T01671033





000
SAUS46 KLOX 312249
MTRSDB
METAR KSDB 312248Z AUTO 34024G34KT 10SM CLR 17/M03 A3009 RMK AO2 PK
WND 33035/2202 SLP149 T01671033





000
SAUS46 KLOX 312249
MTRCQT
METAR KCQT 312247Z AUTO 28006KT 10SM CLR 21/12 A2995 RMK AO2 SLP141
T02110122





000
SAUS46 KLOX 312249
MTRCQT
METAR KCQT 312247Z AUTO 28006KT 10SM CLR 21/12 A2995 RMK AO2 SLP141
T02110122





000
SAUS46 KLOX 312236
MTRMWS
METAR KMWS 312230Z 23500G00KT MM/08 RMK SNOW DEPTH 4.00





000
SAUS46 KLOX 312236
MTRMWS
METAR KMWS 312230Z 23500G00KT MM/08 RMK SNOW DEPTH 4.00





000
SAUS46 KLOX 312215
MTRMWS
METAR KMWS 312200Z 22006G07KT 18/08 RMK SNOW DEPTH 3.00





000
SAUS46 KLOX 312159
MTR9L2
METAR K9L2 312155Z AUTO 28025G34KT 10SM CLR 24/M04 A2994 RMK AO2 PK
WND 28035/2135 SLP126 T02441039 $





000
SAUS46 KLOX 312154
MTRMWS
METAR KMWS 312145Z 21006G08KT 19/09 RMK SNOW DEPTH 4.00





000
SAUS46 KLOX 312154
MTRMWS
METAR KMWS 312145Z 21006G08KT 19/09 RMK SNOW DEPTH 4.00





000
SAUS46 KLOX 312149
MTRSDB
METAR KSDB 312148Z AUTO 34025G30KT 10SM CLR 17/M06 A3010 RMK AO2 PK
WND 35031/2059 SLP150 T01721061





000
SAUS46 KLOX 312149
MTRSDB
METAR KSDB 312148Z AUTO 34025G30KT 10SM CLR 17/M06 A3010 RMK AO2 PK
WND 35031/2059 SLP150 T01721061





000
SAUS46 KLOX 312148
MTRCQT
METAR KCQT 312147Z AUTO 00000KT 8SM CLR 21/13 A2997 RMK AO2 SLP147
T02060128





000
SAUS46 KLOX 312136
MTRMWS
METAR KMWS 312130Z 23500G00KT MM/09 RMK SNOW DEPTH 3.00





000
SAUS46 KLOX 312136
MTRMWS
METAR KMWS 312130Z 23500G00KT MM/09 RMK SNOW DEPTH 3.00





000
SAUS46 KLOX 312115
MTRMWS
METAR KMWS 312100Z 23006G09KT 18/08 RMK SNOW DEPTH 3.00





000
SAUS46 KLOX 312115
MTRMWS
METAR KMWS 312100Z 23006G09KT 18/08 RMK SNOW DEPTH 3.00





000
SAUS46 KLOX 312059
MTR9L2
METAR K9L2 312055Z AUTO 28023G31KT 10SM CLR 26/M02 A2995 RMK AO2 PK
WND 27034/2040 SLP130 T02561022 58010 $





000
SAUS46 KLOX 312057
MTRMWS
METAR KMWS 312045Z 21006G09KT 19/07 RMK SNOW DEPTH 3.00





000
SAUS46 KLOX 312049
MTRSDB
METAR KSDB 312048Z AUTO 35018G31KT 10SM CLR 16/M06 A3013 RMK AO2 PK
WND 33034/2004 SLP160 T01611061 58004





000
SAUS46 KLOX 312048
MTRCQT
METAR KCQT 312047Z AUTO VRB03KT 5SM HZ CLR 21/13 A2999 RMK AO2
SLP153 T02060133 58009





000
SAUS46 KLOX 312036
MTRMWS
METAR KMWS 312030Z 23500G00KT MM/06 RMK SNOW DEPTH 3.00





000
SAUS46 KLOX 312015
MTRMWS
METAR KMWS 312000Z 23507G08KT 19/05 RMK SNOW DEPTH 3.00





000
SAUS46 KLOX 312015
MTRMWS
METAR KMWS 312000Z 23507G08KT 19/05 RMK SNOW DEPTH 3.00





000
SAUS46 KLOX 311955
MTR9L2
METAR K9L2 311955Z AUTO 26022G28KT 10SM CLR 26/M01 A2997 RMK AO2 PK
WND 27028/1955 SLP135 T02561006 $





000
SAUS46 KLOX 311954
MTRMWS
METAR KMWS 311945Z 23506G08KT 20/06 RMK SNOW DEPTH 4.00





000
SAUS46 KLOX 311954
MTRMWS
METAR KMWS 311945Z 23506G08KT 20/06 RMK SNOW DEPTH 4.00





000
SAUS46 KLOX 311949
MTRSDB
METAR KSDB 311948Z AUTO 34019G31KT 10SM CLR 17/M05 A3014 RMK AO2 PK
WND 36031/1944 SLP162 T01671050





000
SAUS46 KLOX 311948
MTRCQT
METAR KCQT 311947Z AUTO VRB03KT 4SM HZ CLR 22/13 A3000 RMK AO2
SLP156 T02170133





000
SAUS46 KLOX 311936
MTRMWS
METAR KMWS 311930Z 23500G00KT MM/06 RMK SNOW DEPTH 4.00





000
SAUS46 KLOX 311915
MTRMWS
METAR KMWS 311900Z 22503G06KT 20/05 RMK SNOW DEPTH 3.00





000
SAUS46 KLOX 311859
MTR9L2
METAR K9L2 311855Z AUTO 25020G25KT 10SM CLR 25/01 A2998 RMK AO2
SLP137 T02500006 $





000
SAUS46 KLOX 311859
MTR9L2
METAR K9L2 311855Z AUTO 25020G25KT 10SM CLR 25/01 A2998 RMK AO2
SLP137 T02500006 $





000
SAUS46 KLOX 311854
MTRMWS
METAR KMWS 311845Z 23504G05KT 20/04 RMK SNOW DEPTH 3.00





000
SAUS46 KLOX 311849
MTRSDB
METAR KSDB 311848Z AUTO 35018G32KT 10SM CLR 16/M03 A3015 RMK AO2 PK
WND 35032/1845 SLP166 T01611033





000
SAUS46 KLOX 311848
MTRCQT
METAR KCQT 311847Z AUTO VRB03KT 4SM HZ CLR 21/12 A3001 RMK AO2
SLP161 T02110122





000
SAUS46 KLOX 311836
MTRMWS
METAR KMWS 311830Z 23500G00KT MM/04 RMK SNOW DEPTH 3.00





000
SAUS46 KLOX 311836
MTRMWS
METAR KMWS 311830Z 23500G00KT MM/04 RMK SNOW DEPTH 3.00





000
SAUS46 KLOX 311815
MTRMWS
METAR KMWS 311800Z 21002G04KT 20/02 RMK SNOW DEPTH 3.00





000
SAUS46 KLOX 311815
MTRMWS
METAR KMWS 311800Z 21002G04KT 20/02 RMK SNOW DEPTH 3.00





000
SAUS46 KLOX 311759
MTR9L2
METAR K9L2 311755Z AUTO 26015G25KT 10SM CLR 24/00 A2999 RMK AO2
SLP141 T02440000 10244 20083 50001 $





000
SAUS46 KLOX 311757
MTRCQT
SPECI KCQT 311756Z AUTO 00000KT 3SM HZ CLR 20/13 A3002 RMK AO2
T02000128





000
SAUS46 KLOX 311754
MTRMWS
METAR KMWS 311745Z 23500G00KT MM/02 RMK SNOW DEPTH 3.00





000
SAUS46 KLOX 311754
MTRMWS
METAR KMWS 311745Z 23500G00KT MM/02 RMK SNOW DEPTH 3.00





000
SAUS46 KLOX 311749
MTRSDB
METAR KSDB 311748Z AUTO 35018G27KT 10SM CLR 15/M03 A3014 RMK AO2 PK
WND 33030/1712 SLP164 T01501033 10156 20111 51011 $





000
SAUS46 KLOX 311749
MTRSDB
METAR KSDB 311748Z AUTO 35018G27KT 10SM CLR 15/M03 A3014 RMK AO2 PK
WND 33030/1712 SLP164 T01501033 10156 20111 51011 $





000
SAUS46 KLOX 311748
MTRCQT
METAR KCQT 311747Z AUTO 00000KT 2 1/2SM HZ CLR 19/13 A3001 RMK AO2
SLP162 T01940128 10194 20144 50006





000
SAUS46 KLOX 311748
MTRCQT
METAR KCQT 311747Z AUTO 00000KT 2 1/2SM HZ CLR 19/13 A3001 RMK AO2
SLP162 T01940128 10194 20144 50006





000
SAUS46 KLOX 311736
MTRMWS
METAR KMWS 311730Z 23500G00KT MM/02 RMK SNOW DEPTH 3.00





000
SAUS46 KLOX 311736
MTRMWS
METAR KMWS 311730Z 23500G00KT MM/02 RMK SNOW DEPTH 3.00





000
SAUS46 KLOX 311715
MTRMWS
METAR KMWS 311700Z 28501G02KT 19/00 RMK SNOW DEPTH 3.00





000
SAUS46 KLOX 311715
MTRMWS
METAR KMWS 311700Z 28501G02KT 19/00 RMK SNOW DEPTH 3.00





000
SAUS46 KLOX 311712
MTRCQT
SPECI KCQT 311711Z AUTO 00000KT 2SM HZ SCT012 18/13 A3002 RMK AO2
T01830128





000
SAUS46 KLOX 311712
MTRCQT
SPECI KCQT 311711Z AUTO 00000KT 2SM HZ SCT012 18/13 A3002 RMK AO2
T01830128





000
SAUS46 KLOX 311655
MTR9L2
METAR K9L2 311655Z AUTO 26015KT 10SM CLR 22/01 A3000 RMK AO2 SLP144
T02220006 $





000
SAUS46 KLOX 311655
MTR9L2
METAR K9L2 311655Z AUTO 26015KT 10SM CLR 22/01 A3000 RMK AO2 SLP144
T02220006 $





000
SAUS46 KLOX 311654
MTRMWS
METAR KMWS 311645Z 24502G03KT 19/02 RMK SNOW DEPTH 3.00





000
SAUS46 KLOX 311649
MTRSDB
METAR KSDB 311648Z AUTO 33020KT 10SM CLR 14/M03 A3013 RMK AO2 PK WND
34028/1633 SLP161 T01441033 $





000
SAUS46 KLOX 311649
MTRSDB
METAR KSDB 311648Z AUTO 33020KT 10SM CLR 14/M03 A3013 RMK AO2 PK WND
34028/1633 SLP161 T01441033 $





000
SAUS46 KLOX 311648
MTRCQT
METAR KCQT 311647Z AUTO 00000KT 2SM HZ OVC012 18/13 A3002 RMK AO2
SLP164 T01780133





000
SAUS46 KLOX 311648
MTRCQT
METAR KCQT 311647Z AUTO 00000KT 2SM HZ OVC012 18/13 A3002 RMK AO2
SLP164 T01780133





000
SAUS46 KLOX 311636
MTRMWS
METAR KMWS 311630Z 23500G00KT MM/M01 RMK SNOW DEPTH 3.00





000
SAUS46 KLOX 311636
MTRMWS
METAR KMWS 311630Z 23500G00KT MM/M01 RMK SNOW DEPTH 3.00





000
SAUS46 KLOX 311635
MTRCQT
SPECI KCQT 311634Z AUTO 00000KT 2SM HZ OVC011 17/13 A3002 RMK AO2
T01670128





000
SAUS46 KLOX 311635
MTRCQT
SPECI KCQT 311634Z AUTO 00000KT 2SM HZ OVC011 17/13 A3002 RMK AO2
T01670128





000
SAUS46 KLOX 311615
MTRMWS
METAR KMWS 311600Z 25001G02KT 15/M02 RMK SNOW DEPTH 3.00





000
SAUS46 KLOX 311604
MTRCQT
SPECI KCQT 311603Z AUTO 00000KT 1 3/4SM HZ OVC010 16/13 A3001 RMK
AO2 T01560128





000
SAUS46 KLOX 311559
MTR9L2
METAR K9L2 311555Z AUTO 26013KT 10SM CLR 20/02 A2999 RMK AO2 SLP142
T02000022 $





000
SAUS46 KLOX 311554
MTRMWS
METAR KMWS 311545Z 20502G03KT 16/M01 RMK SNOW DEPTH 3.00





000
SAUS46 KLOX 311549
MTRSDB
METAR KSDB 311548Z AUTO 32009G14KT 10SM CLR 14/M01 A3012 RMK AO2
SLP158 T01391011 $





000
SAUS46 KLOX 311548
MTRCQT
METAR KCQT 311547Z AUTO 00000KT 1 3/4SM HZ OVC009 16/13 A3001 RMK
AO2 SLP162 T01560128





000
SAUS46 KLOX 311548
MTRCQT
METAR KCQT 311547Z AUTO 00000KT 1 3/4SM HZ OVC009 16/13 A3001 RMK
AO2 SLP162 T01560128





000
SAUS46 KLOX 311536
MTRMWS
METAR KMWS 311530Z 23500G00KT MM/M01 RMK SNOW DEPTH 3.00





000
SAUS46 KLOX 311515
MTRMWS
METAR KMWS 311500Z 03501G02KT 14/M03 RMK SNOW DEPTH 3.00





000
SAUS46 KLOX 311456
MTR9L2
METAR K9L2 311455Z AUTO 24007KT 10SM CLR 18/02 A2998 RMK AO2 SLP140
T01780022 53006 $





000
SAUS46 KLOX 311456
MTR9L2
METAR K9L2 311455Z AUTO 24007KT 10SM CLR 18/02 A2998 RMK AO2 SLP140
T01780022 53006 $





000
SAUS46 KLOX 311454
MTRMWS
METAR KMWS 311445Z 24001G01KT 14/M02 RMK SNOW DEPTH 3.00





000
SAUS46 KLOX 311449
MTRSDB
METAR KSDB 311448Z AUTO 35009KT 10SM CLR 12/M01 A3010 RMK AO2 SLP154
T01221006 53008 $





000
SAUS46 KLOX 311448
MTRCQT
METAR KCQT 311447Z AUTO 00000KT 1 1/2SM BR OVC008 15/13 A3000 RMK
AO2 SLP156 T01500128 53008





000
SAUS46 KLOX 311436
MTRMWS
METAR KMWS 311430Z 23500G00KT MM/M05 RMK SNOW DEPTH 2.00





000
SAUS46 KLOX 311415
MTRMWS
METAR KMWS 311400Z 12002G02KT 12/M05 RMK SNOW DEPTH 2.00





000
SAUS46 KLOX 311415
MTRMWS
METAR KMWS 311400Z 12002G02KT 12/M05 RMK SNOW DEPTH 2.00





000
SAUS46 KLOX 311406
MTRCQT
SPECI KCQT 311404Z AUTO 00000KT 1 3/4SM BR OVC007 15/13 A2998 RMK
AO2 T01500128





000
SAUS46 KLOX 311406
MTRCQT
SPECI KCQT 311404Z AUTO 00000KT 1 3/4SM BR OVC007 15/13 A2998 RMK
AO2 T01500128





000
SAUS46 KLOX 311359
MTR9L2
METAR K9L2 311355Z AUTO 00000KT 10SM CLR 12/M01 A2997 RMK AO2 SLP139
T01221011 TSNO $





000
SAUS46 KLOX 311359
MTR9L2
METAR K9L2 311355Z AUTO 00000KT 10SM CLR 12/M01 A2997 RMK AO2 SLP139
T01221011 TSNO $





000
SAUS46 KLOX 311354
MTRMWS
METAR KMWS 311345Z 09005G05KT 12/M04 RMK SNOW DEPTH 3.00





000
SAUS46 KLOX 311354
MTRMWS
METAR KMWS 311345Z 09005G05KT 12/M04 RMK SNOW DEPTH 3.00





000
SAUS46 KLOX 311349
MTRSDB
METAR KSDB 311348Z AUTO 34015KT 10SM CLR 12/01 A3009 RMK AO2 SLP145
T01170006 $





000
SAUS46 KLOX 311349
MTRSDB
METAR KSDB 311348Z AUTO 34015KT 10SM CLR 12/01 A3009 RMK AO2 SLP145
T01170006 $





000
SAUS46 KLOX 311348
MTRCQT
METAR KCQT 311347Z AUTO 00000KT 2 1/2SM BR OVC007 15/13 A2998 RMK
AO2 SLP152 T01500128





000
SAUS46 KLOX 311348
MTRCQT
METAR KCQT 311347Z AUTO 00000KT 2 1/2SM BR OVC007 15/13 A2998 RMK
AO2 SLP152 T01500128





000
SAUS46 KLOX 311336
MTRMWS
METAR KMWS 311330Z 23500G00KT MM/M05 RMK SNOW DEPTH 2.00





000
SAUS46 KLOX 311336
MTRMWS
METAR KMWS 311330Z 23500G00KT MM/M05 RMK SNOW DEPTH 2.00





000
SAUS46 KLOX 311315
MTRMWS
METAR KMWS 311300Z 02504G06KT 11/M07 RMK SNOW DEPTH 2.00





000
SAUS46 KLOX 311315
MTRMWS
METAR KMWS 311300Z 02504G06KT 11/M07 RMK SNOW DEPTH 2.00





000
SAUS46 KLOX 311259
MTR9L2
METAR K9L2 311255Z AUTO 00000KT 10SM CLR 11/M03 A2996 RMK AO2 SLP135
T01061028 TSNO $





000
SAUS46 KLOX 311259
MTR9L2
METAR K9L2 311255Z AUTO 00000KT 10SM CLR 11/M03 A2996 RMK AO2 SLP135
T01061028 TSNO $





000
SAUS46 KLOX 311254
MTRMWS
METAR KMWS 311245Z 29503G03KT 11/M03 RMK SNOW DEPTH 2.00





000
SAUS46 KLOX 311254
MTRMWS
METAR KMWS 311245Z 29503G03KT 11/M03 RMK SNOW DEPTH 2.00





000
SAUS46 KLOX 311249
MTRSDB
METAR KSDB 311248Z AUTO 35013KT 10SM CLR 12/02 A3008 RMK AO2 SLP140
T01170017 $





000
SAUS46 KLOX 311249
MTRSDB
METAR KSDB 311248Z AUTO 35013KT 10SM CLR 12/02 A3008 RMK AO2 SLP140
T01170017 $





000
SAUS46 KLOX 311248
MTRCQT
METAR KCQT 311247Z AUTO 00000KT 2 1/2SM BR OVC007 14/13 A2998 RMK
AO2 SLP149 T01440128





000
SAUS46 KLOX 311248
MTRCQT
METAR KCQT 311247Z AUTO 00000KT 2 1/2SM BR OVC007 14/13 A2998 RMK
AO2 SLP149 T01440128





000
SAUS46 KLOX 311236
MTRMWS
METAR KMWS 311230Z 23500G00KT MM/M07 RMK SNOW DEPTH 2.00





000
SAUS46 KLOX 311236
MTRMWS
METAR KMWS 311230Z 23500G00KT MM/M07 RMK SNOW DEPTH 2.00





000
SAUS46 KLOX 311215
MTRMWS
METAR KMWS 311200Z 27001G02KT 12/M03 RMK SNOW DEPTH 3.00





000
SAUS46 KLOX 311215
MTRMWS
METAR KMWS 311200Z 27001G02KT 12/M03 RMK SNOW DEPTH 3.00





000
SAUS46 KLOX 311210
MTRCQT
SPECI KCQT 311209Z AUTO 00000KT 2 1/2SM BR OVC008 14/13 A2997 RMK
AO2 T01440128





000
SAUS46 KLOX 311210
MTRCQT
SPECI KCQT 311209Z AUTO 00000KT 2 1/2SM BR OVC008 14/13 A2997 RMK
AO2 T01440128





000
SAUS46 KLOX 311155
MTR9L2
METAR K9L2 311155Z AUTO 00000KT 10SM CLR 12/M02 A2996 RMK AO2 SLP134
T01221022 10194 20117 56008 $





000
SAUS46 KLOX 311155
MTR9L2
METAR K9L2 311155Z AUTO 00000KT 10SM CLR 12/M02 A2996 RMK AO2 SLP134
T01221022 10194 20117 56008 $





000
SAUS46 KLOX 311154
MTRMWS
METAR KMWS 311145Z 25003G03KT 11/M06 RMK SNOW DEPTH 2.00





000
SAUS46 KLOX 311154
MTRMWS
METAR KMWS 311145Z 25003G03KT 11/M06 RMK SNOW DEPTH 2.00





000
SAUS46 KLOX 311149
MTRSDB
METAR KSDB 311148Z AUTO 35015KT 10SM CLR 13/02 A3008 RMK AO2 SLP135
T01330017 10183 20133 56011 $





000
SAUS46 KLOX 311149
MTRSDB
METAR KSDB 311148Z AUTO 35015KT 10SM CLR 13/02 A3008 RMK AO2 SLP135
T01330017 10183 20133 56011 $





000
SAUS46 KLOX 311148
MTRCQT
METAR KCQT 311147Z AUTO 00000KT 3SM BR OVC008 14/12 A2997 RMK AO2
SLP148 T01440122 10156 20139 58007





000
SAUS46 KLOX 311148
MTRCQT
METAR KCQT 311147Z AUTO 00000KT 3SM BR OVC008 14/12 A2997 RMK AO2
SLP148 T01440122 10156 20139 58007





000
SAUS46 KLOX 311136
MTRMWS
METAR KMWS 311130Z 23500G00KT MM/M11 RMK SNOW DEPTH 3.00





000
SAUS46 KLOX 311136
MTRMWS
METAR KMWS 311130Z 23500G00KT MM/M11 RMK SNOW DEPTH 3.00





000
SAUS46 KLOX 311115
MTRMWS
METAR KMWS 311100Z 11003G04KT 11/M07 RMK SNOW DEPTH 3.00





000
SAUS46 KLOX 311115
MTRMWS
METAR KMWS 311100Z 11003G04KT 11/M07 RMK SNOW DEPTH 3.00





000
SAUS46 KLOX 311059
MTR9L2
METAR K9L2 311055Z AUTO 12005KT 10SM CLR 12/M03 A2997 RMK AO2 SLP136
T01221033 $





000
SAUS46 KLOX 311054
MTRMWS
METAR KMWS 311045Z 16003G05KT 10/00 RMK SNOW DEPTH 2.00





000
SAUS46 KLOX 311054
MTRMWS
METAR KMWS 311045Z 16003G05KT 10/00 RMK SNOW DEPTH 2.00





000
SAUS46 KLOX 311049
MTRSDB
METAR KSDB 311048Z AUTO 34013KT 10SM CLR 13/01 A3009 RMK AO2 SLP137
T01330006 $





000
SAUS46 KLOX 311049
MTRSDB
METAR KSDB 311048Z AUTO 34013KT 10SM CLR 13/01 A3009 RMK AO2 SLP137
T01330006 $





000
SAUS46 KLOX 311048
MTRCQT
METAR KCQT 311047Z AUTO 00000KT 3SM BR OVC009 14/12 A2998 RMK AO2
SLP149 T01390122





000
SAUS46 KLOX 311048
MTRCQT
METAR KCQT 311047Z AUTO 00000KT 3SM BR OVC009 14/12 A2998 RMK AO2
SLP149 T01390122





000
SAUS46 KLOX 311036
MTRMWS
METAR KMWS 311030Z 23500G00KT MM/01 RMK SNOW DEPTH 2.00





000
SAUS46 KLOX 311031
MTRCQT
SPECI KCQT 311030Z AUTO 00000KT 4SM BR BKN009 14/12 A2998 RMK AO2
T01390122





000
SAUS46 KLOX 311031
MTRCQT
SPECI KCQT 311030Z AUTO 00000KT 4SM BR BKN009 14/12 A2998 RMK AO2
T01390122





000
SAUS46 KLOX 311023
MTRCQT
SPECI KCQT 311021Z AUTO 00000KT 4SM BR FEW009 14/12 A2998 RMK AO2
T01390122





000
SAUS46 KLOX 311015
MTRMWS
METAR KMWS 311000Z 20504G04KT 12/M06 RMK SNOW DEPTH 2.00





000
SAUS46 KLOX 311015
MTRMWS
METAR KMWS 311000Z 20504G04KT 12/M06 RMK SNOW DEPTH 2.00





000
SAUS46 KLOX 310956
MTR9L2
METAR K9L2 310955Z AUTO 00000KT 10SM CLR 14/M04 A2998 RMK AO2 SLP138
T01391039 $





000
SAUS46 KLOX 310956
MTR9L2
METAR K9L2 310955Z AUTO 00000KT 10SM CLR 14/M04 A2998 RMK AO2 SLP138
T01391039 $





000
SAUS46 KLOX 310954
MTRMWS
METAR KMWS 310945Z 21505G06KT 12/M07 RMK SNOW DEPTH 2.00





000
SAUS46 KLOX 310950
MTRSDB
METAR KSDB 310948Z AUTO 35015KT 10SM CLR 15/00 A3010 RMK AO2 SLP140
T01500000 $





000
SAUS46 KLOX 310949
MTRCQT
METAR KCQT 310947Z AUTO 00000KT 4SM BR CLR 14/12 A2999 RMK AO2
SLP154 T01390122





000
SAUS46 KLOX 310936
MTRMWS
METAR KMWS 310930Z 23500G00KT MM/M05 RMK SNOW DEPTH 2.00





000
SAUS46 KLOX 310915
MTRMWS
METAR KMWS 310900Z 13002G04KT 11/M04 RMK SNOW DEPTH 3.00





000
SAUS46 KLOX 310915
MTRMWS
METAR KMWS 310900Z 13002G04KT 11/M04 RMK SNOW DEPTH 3.00





000
SAUS46 KLOX 310859
MTR9L2
METAR K9L2 310855Z AUTO 24007KT 10SM CLR 16/M03 A2999 RMK AO2 SLP141
T01611033 58001 $





000
SAUS46 KLOX 310854
MTRMWS
METAR KMWS 310845Z 15504G05KT 11/M04 RMK SNOW DEPTH 3.00





000
SAUS46 KLOX 310854
MTRMWS
METAR KMWS 310845Z 15504G05KT 11/M04 RMK SNOW DEPTH 3.00





000
SAUS46 KLOX 310849
MTRSDB
METAR KSDB 310848Z AUTO 34016G22KT 10SM CLR 16/M01 A3012 RMK AO2
SLP142 T01611006 58006 $





000
SAUS46 KLOX 310849
MTRSDB
METAR KSDB 310848Z AUTO 34016G22KT 10SM CLR 16/M01 A3012 RMK AO2
SLP142 T01611006 58006 $





000
SAUS46 KLOX 310848
MTRCQT
METAR KCQT 310847Z AUTO 00000KT 5SM BR CLR 14/12 A2999 RMK AO2
SLP155 T01440122 58004





000
SAUS46 KLOX 310848
MTRCQT
METAR KCQT 310847Z AUTO 00000KT 5SM BR CLR 14/12 A2999 RMK AO2
SLP155 T01440122 58004





000
SAUS46 KLOX 310836
MTRMWS
METAR KMWS 310830Z 23500G00KT MM/M06 RMK SNOW DEPTH 3.00





000
SAUS46 KLOX 310836
MTRMWS
METAR KMWS 310830Z 23500G00KT MM/M06 RMK SNOW DEPTH 3.00





000
SAUS46 KLOX 310815
MTRMWS
METAR KMWS 310800Z 17003G05KT 12/M09 RMK SNOW DEPTH 3.00





000
SAUS46 KLOX 310759
MTR9L2
METAR K9L2 310755Z AUTO 23006KT 10SM CLR 14/M04 A3000 RMK AO2 SLP146
T01391044 403060050 $





000
SAUS46 KLOX 310754
MTRMWS
METAR KMWS 310745Z 19504G07KT 12/M05 RMK SNOW DEPTH 3.00





000
SAUS46 KLOX 310749
MTRSDB
METAR KSDB 310748Z AUTO 34011KT 10SM CLR 17/M01 A3013 RMK AO2 SLP146
T01721011 402830139 $





000
SAUS46 KLOX 310748
MTRCQT
METAR KCQT 310747Z AUTO 00000KT 5SM BR CLR 14/13 A3001 RMK AO2
SLP159 T01440128 402560139





000
SAUS46 KLOX 310736
MTRMWS
METAR KMWS 310730Z 23500G00KT MM/M07 RMK SNOW DEPTH 3.00





000
SAUS46 KLOX 310715
MTRMWS
METAR KMWS 310700Z 17007G09KT 13/M09 RMK SNOW DEPTH 3.00





000
SAUS46 KLOX 310657
MTRMWS
METAR KMWS 310645Z 16507G08KT 13/M11 RMK SNOW DEPTH 3.00





000
SAUS46 KLOX 310657
MTRMWS
METAR KMWS 310645Z 16507G08KT 13/M11 RMK SNOW DEPTH 3.00





000
SAUS46 KLOX 310655
MTR9L2
METAR K9L2 310655Z AUTO 21007KT 10SM CLR 18/M04 A2999 RMK AO2 SLP144
T01781039 $





000
SAUS46 KLOX 310655
MTR9L2
METAR K9L2 310655Z AUTO 21007KT 10SM CLR 18/M04 A2999 RMK AO2 SLP144
T01781039 $





000
SAUS46 KLOX 310649
MTRSDB
METAR KSDB 310648Z AUTO 34018G25KT 10SM CLR 17/M02 A3013 RMK AO2
SLP148 T01721022 $





000
SAUS46 KLOX 310649
MTRSDB
METAR KSDB 310648Z AUTO 34018G25KT 10SM CLR 17/M02 A3013 RMK AO2
SLP148 T01721022 $





000
SAUS46 KLOX 310648
MTRCQT
METAR KCQT 310647Z AUTO 00000KT 5SM BR SCT008 15/13 A3001 RMK AO2
SLP160 T01500128





000
SAUS46 KLOX 310648
MTRCQT
METAR KCQT 310647Z AUTO 00000KT 5SM BR SCT008 15/13 A3001 RMK AO2
SLP160 T01500128





000
SAUS46 KLOX 310645
MTRCQT
SPECI KCQT 310644Z AUTO 00000KT 5SM BR SCT008 15/13 A3001 RMK AO2
T01500128





000
SAUS46 KLOX 310645
MTRCQT
SPECI KCQT 310644Z AUTO 00000KT 5SM BR SCT008 15/13 A3001 RMK AO2
T01500128





000
SAUS46 KLOX 310636
MTRMWS
METAR KMWS 310630Z 23500G00KT MM/M07 RMK SNOW DEPTH 3.00





000
SAUS46 KLOX 310636
MTRMWS
METAR KMWS 310630Z 23500G00KT MM/M07 RMK SNOW DEPTH 3.00





000
SAUS46 KLOX 310615
MTRMWS
METAR KMWS 310600Z 16011G11KT 15/M04 RMK SNOW DEPTH 3.00





000
SAUS46 KLOX 310615
MTRMWS
METAR KMWS 310600Z 16011G11KT 15/M04 RMK SNOW DEPTH 3.00





000
SAUS46 KLOX 310556
MTR9L2
METAR K9L2 310555Z AUTO 26007KT 10SM CLR 19/M02 A2999 RMK AO2 SLP145
T01891022 10300 20172 51012 $





000
SAUS46 KLOX 310556
MTR9L2
METAR K9L2 310555Z AUTO 26007KT 10SM CLR 19/M02 A2999 RMK AO2 SLP145
T01891022 10300 20172 51012 $





000
SAUS46 KLOX 310554
MTRMWS
METAR KMWS 310545Z 16009G13KT 15/M06 RMK SNOW DEPTH 3.00





000
SAUS46 KLOX 310554
MTRMWS
METAR KMWS 310545Z 16009G13KT 15/M06 RMK SNOW DEPTH 3.00





000
SAUS46 KLOX 310549
MTRSDB
METAR KSDB 310548Z AUTO 31011KT 10SM CLR 18/M03 A3013 RMK AO2 SLP151
T01831033 10256 20167 50006 $





000
SAUS46 KLOX 310549
MTRSDB
METAR KSDB 310548Z AUTO 31011KT 10SM CLR 18/M03 A3013 RMK AO2 SLP151
T01831033 10256 20167 50006 $





000
SAUS46 KLOX 310548
MTRCQT
METAR KCQT 310547Z AUTO 00000KT 5SM BR OVC007 15/13 A3001 RMK AO2
SLP160 T01500133 10211 20150 51015





000
SAUS46 KLOX 310548
MTRCQT
METAR KCQT 310547Z AUTO 00000KT 5SM BR OVC007 15/13 A3001 RMK AO2
SLP160 T01500133 10211 20150 51015





000
SAUS46 KLOX 310536
MTRMWS
METAR KMWS 310530Z 23500G00KT MM/M11 RMK SNOW DEPTH 3.00





000
SAUS46 KLOX 310536
MTRMWS
METAR KMWS 310530Z 23500G00KT MM/M11 RMK SNOW DEPTH 3.00





000
SAUS46 KLOX 310515
MTRMWS
METAR KMWS 310500Z 17008G10KT 15/M12 RMK SNOW DEPTH 3.00





000
SAUS46 KLOX 310515
MTRMWS
METAR KMWS 310500Z 17008G10KT 15/M12 RMK SNOW DEPTH 3.00





000
SAUS46 KLOX 310503
MTRCQT
SPECI KCQT 310502Z AUTO 00000KT 6SM BR BKN006 15/13 A3000 RMK AO2
T01500128





000
SAUS46 KLOX 310503
MTRCQT
SPECI KCQT 310502Z AUTO 00000KT 6SM BR BKN006 15/13 A3000 RMK AO2
T01500128





000
SAUS46 KLOX 310500
MTRCQT
SPECI KCQT 310459Z AUTO 00000KT 6SM BR SCT006 15/13 A3000 RMK AO2
T01500128





000
SAUS46 KLOX 310500
MTRCQT
SPECI KCQT 310459Z AUTO 00000KT 6SM BR SCT006 15/13 A3000 RMK AO2
T01500128





000
SAUS46 KLOX 310459
MTR9L2
METAR K9L2 310455Z AUTO 30006KT 10SM CLR 19/M02 A2999 RMK AO2 SLP145
T01941017 $





000
SAUS46 KLOX 310459
MTR9L2
METAR K9L2 310455Z AUTO 30006KT 10SM CLR 19/M02 A2999 RMK AO2 SLP145
T01941017 $





000
SAUS46 KLOX 310454
MTRMWS
METAR KMWS 310445Z 16509G14KT 14/M15 RMK SNOW DEPTH 3.00





000
SAUS46 KLOX 310449
MTRSDB
METAR KSDB 310448Z AUTO 34009KT 10SM CLR 17/M03 A3014 RMK AO2 SLP157
T01721028 $





000
SAUS46 KLOX 310448
MTRCQT
METAR KCQT 310447Z AUTO 00000KT 6SM BR BKN006 15/13 A3000 RMK AO2
SLP158 T01500128





000
SAUS46 KLOX 310436
MTRMWS
METAR KMWS 310430Z 23500G00KT MM/M17 RMK SNOW DEPTH 3.00





000
SAUS46 KLOX 310436
MTRMWS
METAR KMWS 310430Z 23500G00KT MM/M17 RMK SNOW DEPTH 3.00





000
SAUS46 KLOX 310419
MTRCQT
SPECI KCQT 310418Z AUTO 00000KT 6SM BR BKN007 15/13 A3000 RMK AO2
T01500128





000
SAUS46 KLOX 310419
MTRCQT
SPECI KCQT 310418Z AUTO 00000KT 6SM BR BKN007 15/13 A3000 RMK AO2
T01500128





000
SAUS46 KLOX 310415
MTRMWS
METAR KMWS 310400Z 15008G10KT 15/M20 RMK SNOW DEPTH 3.00





000
SAUS46 KLOX 310415
MTRMWS
METAR KMWS 310400Z 15008G10KT 15/M20 RMK SNOW DEPTH 3.00





000
SAUS46 KLOX 310410
MTRCQT
SPECI KCQT 310409Z AUTO 00000KT 6SM BR FEW007 15/13 A3000 RMK AO2
T01500128





000
SAUS46 KLOX 310410
MTRCQT
SPECI KCQT 310409Z AUTO 00000KT 6SM BR FEW007 15/13 A3000 RMK AO2
T01500128





000
SAUS46 KLOX 310356
MTR9L2
METAR K9L2 310355Z AUTO 26011KT 10SM CLR 22/M03 A2998 RMK AO2 SLP142
T02171033 $





000
SAUS46 KLOX 310354
MTRMWS
METAR KMWS 310345Z 16009G11KT 15/M19 RMK SNOW DEPTH 3.00





000
SAUS46 KLOX 310349
MTRSDB
METAR KSDB 310348Z AUTO 28004KT 10SM CLR 18/M07 A3014 RMK AO2 SLP158
T01831072 $





000
SAUS46 KLOX 310348
MTRCQT
METAR KCQT 310347Z AUTO 00000KT 7SM CLR 15/13 A2999 RMK AO2 SLP155
T01500128





000
SAUS46 KLOX 310336
MTRMWS
METAR KMWS 310330Z 23500G00KT MM/M14 RMK SNOW DEPTH 3.00





000
SAUS46 KLOX 310315
MTRMWS
METAR KMWS 310300Z 17004G08KT 14/M12 RMK SNOW DEPTH 3.00





000
SAUS46 KLOX 310256
MTR9L2
METAR K9L2 310255Z AUTO 24015KT 10SM CLR 24/M03 A2996 RMK AO2 SLP135
T02391033 53005 $





000
SAUS46 KLOX 310256
MTR9L2
METAR K9L2 310255Z AUTO 24015KT 10SM CLR 24/M03 A2996 RMK AO2 SLP135
T02391033 53005 $





000
SAUS46 KLOX 310254
MTRMWS
METAR KMWS 310245Z 17504G06KT 14/M12 RMK SNOW DEPTH 3.00





000
SAUS46 KLOX 310249
MTRSDB
METAR KSDB 310248Z AUTO 20007KT 10SM CLR 18/M05 A3011 RMK AO2 SLP153
T01831050 53001 $





000
SAUS46 KLOX 310249
MTRSDB
METAR KSDB 310248Z AUTO 20007KT 10SM CLR 18/M05 A3011 RMK AO2 SLP153
T01831050 53001 $





000
SAUS46 KLOX 310248
MTRCQT
METAR KCQT 310247Z AUTO 29003KT 9SM CLR 17/13 A2996 RMK AO2 SLP145
T01670133 53004





000
SAUS46 KLOX 310248
MTRCQT
METAR KCQT 310247Z AUTO 29003KT 9SM CLR 17/13 A2996 RMK AO2 SLP145
T01670133 53004





000
SAUS46 KLOX 310236
MTRMWS
METAR KMWS 310230Z 23500G00KT MM/M07 RMK SNOW DEPTH 3.00





000
SAUS46 KLOX 310215
MTRMWS
METAR KMWS 310200Z 22503G04KT 18/M05 RMK SNOW DEPTH 3.00





000
SAUS46 KLOX 310215
MTRMWS
METAR KMWS 310200Z 22503G04KT 18/M05 RMK SNOW DEPTH 3.00





000
SAUS46 KLOX 310156
MTR9L2
METAR K9L2 310155Z AUTO 24014KT 10SM CLR 27/M02 A2994 RMK AO2 SLP132
T02671017 $





000
SAUS46 KLOX 310156
MTR9L2
METAR K9L2 310155Z AUTO 24014KT 10SM CLR 27/M02 A2994 RMK AO2 SLP132
T02671017 $





000
SAUS46 KLOX 310154
MTRMWS
METAR KMWS 310145Z 23505G06KT 19/M05 RMK SNOW DEPTH 3.00





000
SAUS46 KLOX 310154
MTRMWS
METAR KMWS 310145Z 23505G06KT 19/M05 RMK SNOW DEPTH 3.00





000
SAUS46 KLOX 310149
MTRCQT
METAR KCQT 310147Z AUTO 29004KT 10SM CLR 18/13 A2995 RMK AO2 SLP140
T01830133





000
SAUS46 KLOX 310149
MTRSDB
METAR KSDB 310148Z AUTO 18010KT 10SM CLR 21/M11 A3010 RMK AO2 SLP149
T02111111 $





000
SAUS46 KLOX 310136
MTRMWS
METAR KMWS 310130Z 23500G00KT MM/M04 RMK SNOW DEPTH 4.00





000
SAUS46 KLOX 310115
MTRMWS
METAR KMWS 310100Z 22009G10KT 20/M04 RMK SNOW DEPTH 4.00





000
SAUS46 KLOX 310115
MTRMWS
METAR KMWS 310100Z 22009G10KT 20/M04 RMK SNOW DEPTH 4.00





000
SAUS46 KLOX 310056
MTR9L2
METAR K9L2 310055Z AUTO 24014KT 10SM CLR 29/M06 A2993 RMK AO2 SLP127
T02941056 $





000
SAUS46 KLOX 310056
MTR9L2
METAR K9L2 310055Z AUTO 24014KT 10SM CLR 29/M06 A2993 RMK AO2 SLP127
T02941056 $





000
SAUS46 KLOX 310054
MTRMWS
METAR KMWS 310045Z 23009G11KT 21/M04 RMK SNOW DEPTH 4.00





000
SAUS46 KLOX 310054
MTRMWS
METAR KMWS 310045Z 23009G11KT 21/M04 RMK SNOW DEPTH 4.00





000
SAUS46 KLOX 310049
MTRSDB
METAR KSDB 310048Z AUTO 17013KT 10SM CLR 24/M10 A3011 RMK AO2 SLP146
T02391100 $





000
SAUS46 KLOX 310049
MTRSDB
METAR KSDB 310048Z AUTO 17013KT 10SM CLR 24/M10 A3011 RMK AO2 SLP146
T02391100 $





000
SAUS46 KLOX 310048
MTRCQT
METAR KCQT 310047Z AUTO VRB03KT 10SM CLR 21/13 A2995 RMK AO2 SLP141
T02060133





000
SAUS46 KLOX 310048
MTRCQT
METAR KCQT 310047Z AUTO VRB03KT 10SM CLR 21/13 A2995 RMK AO2 SLP141
T02060133





000
SAUS46 KLOX 310036
MTRMWS
METAR KMWS 310030Z 23500G00KT MM/M05 RMK SNOW DEPTH 4.00





000
SAUS46 KLOX 310036
MTRMWS
METAR KMWS 310030Z 23500G00KT MM/M05 RMK SNOW DEPTH 4.00





000
SAUS46 KLOX 310015
MTRMWS
METAR KMWS 310000Z 23010G13KT 22/M02 RMK SNOW DEPTH 4.00





000
SAUS46 KLOX 310015
MTRMWS
METAR KMWS 310000Z 23010G13KT 22/M02 RMK SNOW DEPTH 4.00





000
SAUS46 KLOX 302359
MTR9L2
METAR K9L2 302355Z AUTO 23011KT 10SM CLR 30/M09 A2994 RMK AO2 SLP129
T03001089 10306 20211 56023 $





000
SAUS46 KLOX 302359
MTR9L2
METAR K9L2 302355Z AUTO 23011KT 10SM CLR 30/M09 A2994 RMK AO2 SLP129
T03001089 10306 20211 56023 $





000
SAUS46 KLOX 302354
MTRMWS
METAR KMWS 302345Z 21509G12KT 21/00 RMK SNOW DEPTH 3.00





000
SAUS46 KLOX 302354
MTRMWS
METAR KMWS 302345Z 21509G12KT 21/00 RMK SNOW DEPTH 3.00





000
SAUS46 KLOX 302350
MTRSDB
METAR KSDB 302348Z AUTO 17011G18KT 10SM CLR 25/M08 A3011 RMK AO2
SLP144 T02501083 10283 20233 56013 $





000
SAUS46 KLOX 302350
MTRSDB
METAR KSDB 302348Z AUTO 17011G18KT 10SM CLR 25/M08 A3011 RMK AO2
SLP144 T02501083 10283 20233 56013 $





000
SAUS46 KLOX 302349
MTRCQT
METAR KCQT 302347Z AUTO VRB03KT 10SM CLR 21/13 A2995 RMK AO2 SLP140
T02110128 10256 20211 56013





000
SAUS46 KLOX 302349
MTRCQT
METAR KCQT 302347Z AUTO VRB03KT 10SM CLR 21/13 A2995 RMK AO2 SLP140
T02110128 10256 20211 56013





000
SAUS46 KLOX 302336
MTRMWS
METAR KMWS 302330Z 23500G00KT MM/03 RMK SNOW DEPTH 4.00





000
SAUS46 KLOX 302315
MTRMWS
METAR KMWS 302300Z 23507G09KT 21/04 RMK SNOW DEPTH 4.00





000
SAUS46 KLOX 302315
MTRMWS
METAR KMWS 302300Z 23507G09KT 21/04 RMK SNOW DEPTH 4.00





000
SAUS46 KLOX 302256
MTR9L2
METAR K9L2 302255Z AUTO 00000KT 10SM CLR 30/M11 A2996 RMK AO2 SLP135
T03001106 $





000
SAUS46 KLOX 302256
MTR9L2
METAR K9L2 302255Z AUTO 00000KT 10SM CLR 30/M11 A2996 RMK AO2 SLP135
T03001106 $





000
SAUS46 KLOX 302254
MTRMWS
METAR KMWS 302245Z 21507G09KT 21/05 RMK SNOW DEPTH 5.00





000
SAUS46 KLOX 302254
MTRMWS
METAR KMWS 302245Z 21507G09KT 21/05 RMK SNOW DEPTH 5.00





000
SAUS46 KLOX 302249
MTRCQT
METAR KCQT 302247Z AUTO VRB03KT 10SM CLR 22/13 A2996 RMK AO2 SLP144
T02220128





000
SAUS46 KLOX 302249
MTRSDB
METAR KSDB 302248Z AUTO 17016G20KT 10SM CLR 26/M12 A3012 RMK AO2
WSHFT 2211 SLP146 T02611122 $





000
SAUS46 KLOX 302236
MTRMWS
METAR KMWS 302230Z 23500G00KT MM/04 RMK SNOW DEPTH 4.00





000
SAUS46 KLOX 302236
MTRMWS
METAR KMWS 302230Z 23500G00KT MM/04 RMK SNOW DEPTH 4.00





000
SAUS46 KLOX 302229
MTRSDB
SPECI KSDB 302228Z AUTO 19010G20KT 150V220 10SM CLR 27/M17 A3012 RMK
AO2 WSHFT 2211 T02671167 $





000
SAUS46 KLOX 302229
MTRSDB
SPECI KSDB 302228Z AUTO 19010G20KT 150V220 10SM CLR 27/M17 A3012 RMK
AO2 WSHFT 2211 T02671167 $





000
SAUS46 KLOX 302215
MTRMWS
METAR KMWS 302200Z 22008G10KT 23/05 RMK SNOW DEPTH 5.00





000
SAUS46 KLOX 302156
MTR9L2
METAR K9L2 302155Z AUTO 00000KT 10SM CLR 29/M09 A2999 RMK AO2 SLP142
T02891094 $





000
SAUS46 KLOX 302154
MTRMWS
METAR KMWS 302145Z 23500G00KT MM/04 RMK SNOW DEPTH 5.00





000
SAUS46 KLOX 302154
MTRMWS
METAR KMWS 302145Z 23500G00KT MM/04 RMK SNOW DEPTH 5.00





000
SAUS46 KLOX 302149
MTRSDB
METAR KSDB 302148Z AUTO 17011G24KT 10SM CLR 27/M12 A3013 RMK AO2
SLP150 T02671117 $





000
SAUS46 KLOX 302149
MTRSDB
METAR KSDB 302148Z AUTO 17011G24KT 10SM CLR 27/M12 A3013 RMK AO2
SLP150 T02671117 $





000
SAUS46 KLOX 302148
MTRCQT
METAR KCQT 302147Z AUTO VRB04KT 9SM CLR 23/13 A2998 RMK AO2 SLP149
T02330133





000
SAUS46 KLOX 302148
MTRCQT
METAR KCQT 302147Z AUTO VRB04KT 9SM CLR 23/13 A2998 RMK AO2 SLP149
T02330133





000
SAUS46 KLOX 302136
MTRMWS
METAR KMWS 302130Z 23500G00KT MM/03 RMK SNOW DEPTH 5.00





000
SAUS46 KLOX 302115
MTRMWS
METAR KMWS 302100Z 24506G07KT 23/00 RMK SNOW DEPTH 4.00





000
SAUS46 KLOX 302059
MTR9L2
METAR K9L2 302055Z AUTO 16003KT 10SM CLR 28/M09 A3001 RMK AO2 SLP151
T02831089 58022 $





000
SAUS46 KLOX 302054
MTRMWS
METAR KMWS 302045Z 20506G10KT 22/01 RMK SNOW DEPTH 4.00





000
SAUS46 KLOX 302049
MTRSDB
METAR KSDB 302048Z AUTO 16010G19KT 110V190 10SM CLR 28/M14 A3015 RMK
AO2 SLP156 T02781139 58010 $





000
SAUS46 KLOX 302049
MTRSDB
METAR KSDB 302048Z AUTO 16010G19KT 110V190 10SM CLR 28/M14 A3015 RMK
AO2 SLP156 T02781139 58010 $





000
SAUS46 KLOX 302048
MTRCQT
METAR KCQT 302047Z AUTO VRB04KT 8SM CLR 24/13 A2999 RMK AO2 SLP154
T02440133 58013





000
SAUS46 KLOX 302036
MTRMWS
METAR KMWS 302030Z 23500G00KT MM/01 RMK SNOW DEPTH 4.00





000
SAUS46 KLOX 302015
MTRMWS
METAR KMWS 302000Z 23505G07KT 23/02 RMK SNOW DEPTH 4.00





000
SAUS46 KLOX 301955
MTR9L2
METAR K9L2 301955Z AUTO 00000KT 10SM CLR 27/M05 A3004 RMK AO2 SLP160
T02721050 $





000
SAUS46 KLOX 301954
MTRMWS
METAR KMWS 301945Z 24506G08KT 25/00 RMK SNOW DEPTH 4.00





000
SAUS46 KLOX 301954
MTRMWS
METAR KMWS 301945Z 24506G08KT 25/00 RMK SNOW DEPTH 4.00





000
SAUS46 KLOX 301949
MTRSDB
METAR KSDB 301948Z AUTO 15011G18KT 120V180 10SM CLR 27/M09 A3017 RMK
AO2 SLP162 T02671094 $





000
SAUS46 KLOX 301949
MTRSDB
METAR KSDB 301948Z AUTO 15011G18KT 120V180 10SM CLR 27/M09 A3017 RMK
AO2 SLP162 T02671094 $





000
SAUS46 KLOX 301948
MTRCQT
METAR KCQT 301947Z AUTO VRB03KT 6SM HZ CLR 25/14 A3000 RMK AO2
SLP157 T02500139





000
SAUS46 KLOX 301948
MTRCQT
METAR KCQT 301947Z AUTO VRB03KT 6SM HZ CLR 25/14 A3000 RMK AO2
SLP157 T02500139





000
SAUS46 KLOX 301936
MTRMWS
METAR KMWS 301930Z 23500G00KT MM/00 RMK SNOW DEPTH 4.00





000
SAUS46 KLOX 301936
MTRMWS
METAR KMWS 301930Z 23500G00KT MM/00 RMK SNOW DEPTH 4.00





000
SAUS46 KLOX 301915
MTRMWS
METAR KMWS 301900Z 21504G07KT 23/M01 RMK SNOW DEPTH 4.00





000
SAUS46 KLOX 301915
MTRMWS
METAR KMWS 301900Z 21504G07KT 23/M01 RMK SNOW DEPTH 4.00





000
SAUS46 KLOX 301859
MTR9L2
METAR K9L2 301855Z AUTO VRB03KT 10SM CLR 24/M02 A3007 RMK AO2 SLP169
T02441022 $





000
SAUS46 KLOX 301859
MTR9L2
METAR K9L2 301855Z AUTO VRB03KT 10SM CLR 24/M02 A3007 RMK AO2 SLP169
T02441022 $





000
SAUS46 KLOX 301854
MTRMWS
METAR KMWS 301845Z 23005G08KT 23/M02 RMK SNOW DEPTH 4.00





000
SAUS46 KLOX 301854
MTRMWS
METAR KMWS 301845Z 23005G08KT 23/M02 RMK SNOW DEPTH 4.00





000
SAUS46 KLOX 301849
MTRSDB
METAR KSDB 301848Z AUTO 19007KT 10SM CLR 26/M09 A3018 RMK AO2 SLP166
T02561089 $





000
SAUS46 KLOX 301849
MTRSDB
METAR KSDB 301848Z AUTO 19007KT 10SM CLR 26/M09 A3018 RMK AO2 SLP166
T02561089 $





000
SAUS46 KLOX 301848
MTRCQT
METAR KCQT 301847Z AUTO 00000KT 6SM HZ CLR 24/13 A3002 RMK AO2
SLP163 T02390128





000
SAUS46 KLOX 301848
MTRCQT
METAR KCQT 301847Z AUTO 00000KT 6SM HZ CLR 24/13 A3002 RMK AO2
SLP163 T02390128





000
SAUS46 KLOX 301836
MTRMWS
METAR KMWS 301830Z 23500G00KT MM/M03 RMK SNOW DEPTH 4.00





000
SAUS46 KLOX 301815
MTRMWS
METAR KMWS 301800Z 17502G05KT 23/M03 RMK SNOW DEPTH 4.00





000
SAUS46 KLOX 301815
MTRMWS
METAR KMWS 301800Z 17502G05KT 23/M03 RMK SNOW DEPTH 4.00





000
SAUS46 KLOX 301759
MTR9L2
METAR K9L2 301755Z AUTO 00000KT 10SM CLR 21/M02 A3008 RMK AO2 SLP176
T02111017 10211 20050 50004 $





000
SAUS46 KLOX 301759
MTR9L2
METAR K9L2 301755Z AUTO 00000KT 10SM CLR 21/M02 A3008 RMK AO2 SLP176
T02111017 10211 20050 50004 $





000
SAUS46 KLOX 301754
MTRMWS
METAR KMWS 301745Z 22003G06KT 22/M03 RMK SNOW DEPTH 4.00





000
SAUS46 KLOX 301754
MTRMWS
METAR KMWS 301745Z 22003G06KT 22/M03 RMK SNOW DEPTH 4.00





000
SAUS46 KLOX 301749
MTRSDB
METAR KSDB 301748Z AUTO VRB04KT 10SM CLR 24/M04 A3019 RMK AO2 SLP172
T02391044 10239 20139 51010 $





000
SAUS46 KLOX 301749
MTRSDB
METAR KSDB 301748Z AUTO VRB04KT 10SM CLR 24/M04 A3019 RMK AO2 SLP172
T02391044 10239 20139 51010 $





000
SAUS46 KLOX 301748
MTRCQT
METAR KCQT 301747Z AUTO 00000KT 5SM HZ CLR 22/13 A3003 RMK AO2
SLP167 T02170133 10217 20139 50002





000
SAUS46 KLOX 301748
MTRCQT
METAR KCQT 301747Z AUTO 00000KT 5SM HZ CLR 22/13 A3003 RMK AO2
SLP167 T02170133 10217 20139 50002





000
SAUS46 KLOX 301736
MTRMWS
METAR KMWS 301730Z 23500G00KT MM/M03 RMK SNOW DEPTH 3.00





000
SAUS46 KLOX 301736
MTRMWS
METAR KMWS 301730Z 23500G00KT MM/M03 RMK SNOW DEPTH 3.00





000
SAUS46 KLOX 301715
MTRMWS
METAR KMWS 301700Z 21502G04KT 22/M03 RMK SNOW DEPTH 4.00





000
SAUS46 KLOX 301715
MTRMWS
METAR KMWS 301700Z 21502G04KT 22/M03 RMK SNOW DEPTH 4.00





000
SAUS46 KLOX 301657
MTRMWS
METAR KMWS 301645Z 35501G02KT 21/M04 RMK SNOW DEPTH 3.00





000
SAUS46 KLOX 301657
MTRMWS
METAR KMWS 301645Z 35501G02KT 21/M04 RMK SNOW DEPTH 3.00





000
SAUS46 KLOX 301655
MTR9L2
METAR K9L2 301655Z AUTO 14003KT 10SM CLR 18/M01 A3008 RMK AO2 SLP178
T01781011 $





000
SAUS46 KLOX 301655
MTR9L2
METAR K9L2 301655Z AUTO 14003KT 10SM CLR 18/M01 A3008 RMK AO2 SLP178
T01781011 $





000
SAUS46 KLOX 301649
MTRSDB
METAR KSDB 301648Z AUTO 35005KT 10SM CLR 21/M04 A3018 RMK AO2 SLP173
T02061044 $





000
SAUS46 KLOX 301649
MTRCQT
METAR KCQT 301647Z AUTO 00000KT 3SM HZ CLR 18/14 A3003 RMK AO2
SLP168 T01830139





000
SAUS46 KLOX 301637
MTRCQT
SPECI KCQT 301636Z AUTO 00000KT 3SM HZ SCT008 17/14 A3003 RMK AO2
T01720139





000
SAUS46 KLOX 301636
MTRMWS
METAR KMWS 301630Z 23500G00KT MM/M04 RMK SNOW DEPTH 4.00





000
SAUS46 KLOX 301632
MTRCQT
SPECI KCQT 301631Z AUTO 00000KT 2 1/2SM HZ SCT008 18/14 A3003 RMK
AO2 T01780139





000
SAUS46 KLOX 301626
MTRSDB
SPECI KSDB 301625Z AUTO 36004KT 10SM FEW002 20/M04 A3017 RMK AO2
T02001039 $





000
SAUS46 KLOX 301626
MTRSDB
SPECI KSDB 301625Z AUTO 36004KT 10SM FEW002 20/M04 A3017 RMK AO2
T02001039 $





000
SAUS46 KLOX 301615
MTRMWS
METAR KMWS 301600Z 08002G03KT 19/M05 RMK SNOW DEPTH 3.00





000
SAUS46 KLOX 301615
MTRMWS
METAR KMWS 301600Z 08002G03KT 19/M05 RMK SNOW DEPTH 3.00





000
SAUS46 KLOX 301556
MTR9L2
METAR K9L2 301555Z AUTO 00000KT 10SM CLR 15/01 A3008 RMK AO2 SLP176
T01500006 TSNO $





000
SAUS46 KLOX 301554
MTRMWS
METAR KMWS 301545Z 07502G03KT 19/M05 RMK SNOW DEPTH 3.00





000
SAUS46 KLOX 301554
MTRMWS
METAR KMWS 301545Z 07502G03KT 19/M05 RMK SNOW DEPTH 3.00





000
SAUS46 KLOX 301549
MTRSDB
METAR KSDB 301548Z AUTO 36005KT 10SM CLR 18/M02 A3016 RMK AO2 SLP172
T01781017 $





000
SAUS46 KLOX 301548
MTRCQT
METAR KCQT 301547Z AUTO 00000KT 2SM BR OVC007 16/13 A3003 RMK AO2
SLP168 T01560133





000
SAUS46 KLOX 301548
MTRCQT
METAR KCQT 301547Z AUTO 00000KT 2SM BR OVC007 16/13 A3003 RMK AO2
SLP168 T01560133





000
SAUS46 KLOX 301536
MTRMWS
METAR KMWS 301530Z 23500G00KT MM/M04 RMK SNOW DEPTH 3.00





000
SAUS46 KLOX 301520
MTRCQT
SPECI KCQT 301519Z AUTO 00000KT 2SM BR OVC006 15/13 A3003 RMK AO2
T01500133





000
SAUS46 KLOX 301520
MTRCQT
SPECI KCQT 301519Z AUTO 00000KT 2SM BR OVC006 15/13 A3003 RMK AO2
T01500133





000
SAUS46 KLOX 301515
MTRMWS
METAR KMWS 301500Z 05005G07KT 15/M07 RMK SNOW DEPTH 3.00





000
SAUS46 KLOX 301508 COR
MTRCQT
SPECI KCQT 301506Z AUTO 00000KT 1 3/4SM BR OVC006 15/14 A3003 RMK
AO2 T01500139





000
SAUS46 KLOX 301456
MTR9L2
METAR K9L2 301455Z AUTO 00000KT 10SM CLR 11/01 A3007 RMK AO2 SLP174
T01110006 53012 TSNO $





000
SAUS46 KLOX 301454
MTRMWS
METAR KMWS 301445Z 04504G06KT 15/M07 RMK SNOW DEPTH 3.00





000
SAUS46 KLOX 301454
MTRMWS
METAR KMWS 301445Z 04504G06KT 15/M07 RMK SNOW DEPTH 3.00





000
SAUS46 KLOX 301449
MTRSDB
METAR KSDB 301448Z AUTO 35009KT 10SM CLR 16/M02 A3015 RMK AO2 SLP167
T01611022 53009 $





000
SAUS46 KLOX 301449
MTRSDB
METAR KSDB 301448Z AUTO 35009KT 10SM CLR 16/M02 A3015 RMK AO2 SLP167
T01611022 53009 $





000
SAUS46 KLOX 301448
MTRCQT
METAR KCQT 301447Z AUTO 00000KT 2SM BR OVC006 16/14 A3002 RMK AO2
SLP165 T01560139 53010





000
SAUS46 KLOX 301448
MTRCQT
METAR KCQT 301447Z AUTO 00000KT 2SM BR OVC006 16/14 A3002 RMK AO2
SLP165 T01560139 53010





000
SAUS46 KLOX 301443
MTRCQT
SPECI KCQT 301442Z AUTO 00000KT 2SM BR OVC005 15/13 A3002 RMK AO2
T01500133





000
SAUS46 KLOX 301443
MTRCQT
SPECI KCQT 301442Z AUTO 00000KT 2SM BR OVC005 15/13 A3002 RMK AO2
T01500133





000
SAUS46 KLOX 301438
MTRCQT
SPECI KCQT 301437Z AUTO 00000KT 1 3/4SM BR OVC005 15/13 A3002 RMK
AO2 T01500133





000
SAUS46 KLOX 301436
MTRMWS
METAR KMWS 301430Z 23500G00KT MM/M08 RMK SNOW DEPTH 3.00





000
SAUS46 KLOX 301436
MTRMWS
METAR KMWS 301430Z 23500G00KT MM/M08 RMK SNOW DEPTH 3.00





000
SAUS46 KLOX 301420
MTRCQT
SPECI KCQT 301418Z AUTO 00000KT 2 1/2SM BR OVC005 15/13 A3002 RMK
AO2 T01500133





000
SAUS46 KLOX 301420
MTRCQT
SPECI KCQT 301418Z AUTO 00000KT 2 1/2SM BR OVC005 15/13 A3002 RMK
AO2 T01500133





000
SAUS46 KLOX 301415
MTRMWS
METAR KMWS 301400Z 09503G04KT 13/M12 RMK SNOW DEPTH 3.00





000
SAUS46 KLOX 301356
MTR9L2
METAR K9L2 301355Z AUTO 00000KT 10SM CLR 07/M01 A3006 RMK AO2 SLP171
T00671011 TSNO $





000
SAUS46 KLOX 301356
MTR9L2
METAR K9L2 301355Z AUTO 00000KT 10SM CLR 07/M01 A3006 RMK AO2 SLP171
T00671011 TSNO $





000
SAUS46 KLOX 301354
MTRMWS
METAR KMWS 301345Z 08004G05KT 13/M09 RMK SNOW DEPTH 3.00





000
SAUS46 KLOX 301354
MTRMWS
METAR KMWS 301345Z 08004G05KT 13/M09 RMK SNOW DEPTH 3.00





000
SAUS46 KLOX 301349
MTRSDB
METAR KSDB 301348Z AUTO 34012KT 10SM CLR 14/M03 A3014 RMK AO2 SLP162
T01441028 $





000
SAUS46 KLOX 301348
MTRCQT
METAR KCQT 301347Z AUTO 00000KT 5SM BR OVC005 14/13 A3001 RMK AO2
SLP160 T01440128





000
SAUS46 KLOX 301336
MTRMWS
METAR KMWS 301330Z 23500G00KT MM/M13 RMK SNOW DEPTH 3.00





000
SAUS46 KLOX 301336
MTRMWS
METAR KMWS 301330Z 23500G00KT MM/M13 RMK SNOW DEPTH 3.00





000
SAUS46 KLOX 301315
MTRMWS
METAR KMWS 301300Z 10002G03KT 12/M19 RMK SNOW DEPTH 3.00





000
SAUS46 KLOX 301315
MTRMWS
METAR KMWS 301300Z 10002G03KT 12/M19 RMK SNOW DEPTH 3.00





000
SAUS46 KLOX 301312
MTRCQT
SPECI KCQT 301311Z AUTO 00000KT 5SM BR BKN006 BKN010 14/12 A3000 RMK
AO2 T01390122





000
SAUS46 KLOX 301312
MTRCQT
SPECI KCQT 301311Z AUTO 00000KT 5SM BR BKN006 BKN010 14/12 A3000 RMK
AO2 T01390122





000
SAUS46 KLOX 301310
MTRCQT
SPECI KCQT 301308Z AUTO 00000KT 5SM BR SCT006 BKN010 14/12 A3000 RMK
AO2 T01390122





000
SAUS46 KLOX 301310
MTRCQT
SPECI KCQT 301308Z AUTO 00000KT 5SM BR SCT006 BKN010 14/12 A3000 RMK
AO2 T01390122





000
SAUS46 KLOX 301303 COR
MTRCQT
SPECI KCQT 301302Z AUTO 00000KT 5SM BR FEW006 SCT010 14/12 A3000 RMK
AO2 T01390122





000
SAUS46 KLOX 301259
MTR9L2
METAR K9L2 301255Z AUTO 34004KT 10SM CLR 06/M01 A3004 RMK AO2 SLP164
T00611006 TSNO $





000
SAUS46 KLOX 301254
MTRMWS
METAR KMWS 301245Z 29002G02KT 13/M08 RMK SNOW DEPTH 3.00





000
SAUS46 KLOX 301254
MTRMWS
METAR KMWS 301245Z 29002G02KT 13/M08 RMK SNOW DEPTH 3.00





000
SAUS46 KLOX 301249
MTRSDB
METAR KSDB 301248Z AUTO 33016KT 10SM CLR 14/M03 A3012 RMK AO2 SLP154
T01441033 $





000
SAUS46 KLOX 301249
MTRSDB
METAR KSDB 301248Z AUTO 33016KT 10SM CLR 14/M03 A3012 RMK AO2 SLP154
T01441033 $





000
SAUS46 KLOX 301248
MTRCQT
METAR KCQT 301247Z AUTO 00000KT 5SM BR CLR 14/12 A2999 RMK AO2
SLP155 T01390122





000
SAUS46 KLOX 301248
MTRCQT
METAR KCQT 301247Z AUTO 00000KT 5SM BR CLR 14/12 A2999 RMK AO2
SLP155 T01390122





000
SAUS46 KLOX 301236
MTRMWS
METAR KMWS 301230Z 23500G00KT MM/M10 RMK SNOW DEPTH 3.00





000
SAUS46 KLOX 301236
MTRMWS
METAR KMWS 301230Z 23500G00KT MM/M10 RMK SNOW DEPTH 3.00





000
SAUS46 KLOX 301215
MTRMWS
METAR KMWS 301200Z 10507G08KT 14/M09 RMK SNOW DEPTH 3.00





000
SAUS46 KLOX 301215
MTRMWS
METAR KMWS 301200Z 10507G08KT 14/M09 RMK SNOW DEPTH 3.00





000
SAUS46 KLOX 301156
MTR9L2
METAR K9L2 301155Z AUTO 32004KT 10SM CLR 06/M01 A3003 RMK AO2 SLP160
T00611006 10178 20061 55001 TSNO $





000
SAUS46 KLOX 301156
MTR9L2
METAR K9L2 301155Z AUTO 32004KT 10SM CLR 06/M01 A3003 RMK AO2 SLP160
T00611006 10178 20061 55001 TSNO $





000
SAUS46 KLOX 301154
MTRMWS
METAR KMWS 301145Z 11506G08KT 14/M08 RMK SNOW DEPTH 3.00





000
SAUS46 KLOX 301154
MTRMWS
METAR KMWS 301145Z 11506G08KT 14/M08 RMK SNOW DEPTH 3.00





000
SAUS46 KLOX 301149
MTRSDB
METAR KSDB 301148Z AUTO 34013KT 10SM CLR 16/M04 A3012 RMK AO2 SLP147
T01561044 10172 20156 56008 $





000
SAUS46 KLOX 301149
MTRSDB
METAR KSDB 301148Z AUTO 34013KT 10SM CLR 16/M04 A3012 RMK AO2 SLP147
T01561044 10172 20156 56008 $





000
SAUS46 KLOX 301148
MTRCQT
METAR KCQT 301147Z AUTO 00000KT 5SM BR CLR 14/13 A2999 RMK AO2
SLP155 T01390128 10161 20139 56005





000
SAUS46 KLOX 301148
MTRCQT
METAR KCQT 301147Z AUTO 00000KT 5SM BR CLR 14/13 A2999 RMK AO2
SLP155 T01390128 10161 20139 56005





000
SAUS46 KLOX 301136
MTRMWS
METAR KMWS 301130Z 23500G00KT MM/M08 RMK SNOW DEPTH 3.00





000
SAUS46 KLOX 301136
MTRMWS
METAR KMWS 301130Z 23500G00KT MM/M08 RMK SNOW DEPTH 3.00





000
SAUS46 KLOX 301115
MTRMWS
METAR KMWS 301100Z 09506G06KT 14/M09 RMK SNOW DEPTH 3.00





000
SAUS46 KLOX 301115
MTRMWS
METAR KMWS 301100Z 09506G06KT 14/M09 RMK SNOW DEPTH 3.00





000
SAUS46 KLOX 301059
MTR9L2
METAR K9L2 301055Z AUTO 01004KT 10SM CLR 08/00 A3003 RMK AO2 SLP159
T00780000 TSNO $





000
SAUS46 KLOX 301059
MTR9L2
METAR K9L2 301055Z AUTO 01004KT 10SM CLR 08/00 A3003 RMK AO2 SLP159
T00780000 TSNO $





000
SAUS46 KLOX 301054
MTRMWS
METAR KMWS 301045Z 09506G07KT 13/M10 RMK SNOW DEPTH 3.00





000
SAUS46 KLOX 301054
MTRMWS
METAR KMWS 301045Z 09506G07KT 13/M10 RMK SNOW DEPTH 3.00





000
SAUS46 KLOX 301049
MTRSDB
METAR KSDB 301048Z AUTO 34011KT 10SM CLR 16/M05 A3013 RMK AO2 SLP148
T01611050 $





000
SAUS46 KLOX 301049
MTRSDB
METAR KSDB 301048Z AUTO 34011KT 10SM CLR 16/M05 A3013 RMK AO2 SLP148
T01611050 $





000
SAUS46 KLOX 301048
MTRCQT
METAR KCQT 301047Z AUTO 00000KT 4SM BR CLR 14/13 A2999 RMK AO2
SLP154 T01440133





000
SAUS46 KLOX 301048
MTRCQT
METAR KCQT 301047Z AUTO 00000KT 4SM BR CLR 14/13 A2999 RMK AO2
SLP154 T01440133





000
SAUS46 KLOX 301036
MTRMWS
METAR KMWS 301030Z 23500G00KT MM/M08 RMK SNOW DEPTH 3.00





000
SAUS46 KLOX 301036
MTRMWS
METAR KMWS 301030Z 23500G00KT MM/M08 RMK SNOW DEPTH 3.00





000
SAUS46 KLOX 301015
MTRMWS
METAR KMWS 301000Z 12505G06KT 12/M09 RMK SNOW DEPTH 3.00





000
SAUS46 KLOX 301015
MTRMWS
METAR KMWS 301000Z 12505G06KT 12/M09 RMK SNOW DEPTH 3.00





000
SAUS46 KLOX 300959
MTR9L2
METAR K9L2 300955Z AUTO 20003KT 10SM CLR 11/01 A3003 RMK AO2 SLP157
T01110006 $





000
SAUS46 KLOX 300959
MTR9L2
METAR K9L2 300955Z AUTO 20003KT 10SM CLR 11/01 A3003 RMK AO2 SLP157
T01110006 $





000
SAUS46 KLOX 300954
MTRMWS
METAR KMWS 300945Z 14004G05KT 12/M07 RMK SNOW DEPTH 3.00





000
SAUS46 KLOX 300949
MTRSDB
METAR KSDB 300948Z AUTO 32012KT 10SM CLR 16/M05 A3013 RMK AO2 SLP148
T01611050 $





000
SAUS46 KLOX 300948
MTRCQT
METAR KCQT 300947Z AUTO 00000KT 4SM BR CLR 15/13 A3000 RMK AO2
SLP156 T01500133





000
SAUS46 KLOX 300936
MTRMWS
METAR KMWS 300930Z 23500G00KT MM/M06 RMK SNOW DEPTH 3.00





000
SAUS46 KLOX 300915
MTRMWS
METAR KMWS 300900Z 08504G04KT 13/M01 RMK SNOW DEPTH 3.00





000
SAUS46 KLOX 300915
MTRMWS
METAR KMWS 300900Z 08504G04KT 13/M01 RMK SNOW DEPTH 3.00





000
SAUS46 KLOX 300859
MTR9L2
METAR K9L2 300855Z AUTO 13004KT 10SM CLR 13/02 A3004 RMK AO2 SLP159
T01280022 50001 $





000
SAUS46 KLOX 300854
MTRMWS
METAR KMWS 300845Z 12002G04KT 11/M03 RMK SNOW DEPTH 3.00





000
SAUS46 KLOX 300850
MTRSDB
METAR KSDB 300848Z AUTO 33012KT 10SM CLR 16/M06 A3015 RMK AO2 SLP154
T01561056 58004 $





000
SAUS46 KLOX 300849
MTRCQT
METAR KCQT 300847Z AUTO 00000KT 5SM BR CLR 16/14 A3001 RMK AO2
SLP160 T01560139 58005





000
SAUS46 KLOX 300836
MTRMWS
METAR KMWS 300830Z 23500G00KT MM/M01 RMK SNOW DEPTH 3.00





000
SAUS46 KLOX 300815
MTRMWS
METAR KMWS 300800Z 20503G04KT 12/M03 RMK SNOW DEPTH 3.00





000
SAUS46 KLOX 300815
MTRMWS
METAR KMWS 300800Z 20503G04KT 12/M03 RMK SNOW DEPTH 3.00





000
SAUS46 KLOX 300756
MTR9L2
METAR K9L2 300755Z AUTO 01004KT 10SM CLR 14/02 A3004 RMK AO2 SLP160
T01390022 403060039 $





000
SAUS46 KLOX 300756
MTR9L2
METAR K9L2 300755Z AUTO 01004KT 10SM CLR 14/02 A3004 RMK AO2 SLP160
T01390022 403060039 $





000
SAUS46 KLOX 300754
MTRMWS
METAR KMWS 300745Z 19003G04KT 12/M03 RMK SNOW DEPTH 3.00





000
SAUS46 KLOX 300754
MTRMWS
METAR KMWS 300745Z 19003G04KT 12/M03 RMK SNOW DEPTH 3.00





000
SAUS46 KLOX 300749
MTRSDB
METAR KSDB 300748Z AUTO 32011KT 10SM CLR 17/M07 A3015 RMK AO2 SLP157
T01671072 402780128 $





000
SAUS46 KLOX 300749
MTRSDB
METAR KSDB 300748Z AUTO 32011KT 10SM CLR 17/M07 A3015 RMK AO2 SLP157
T01671072 402780128 $





000
SAUS46 KLOX 300748
MTRCQT
METAR KCQT 300747Z AUTO 00000KT 6SM BR CLR 16/14 A3002 RMK AO2
SLP164 T01560139 402560133





000
SAUS46 KLOX 300748
MTRCQT
METAR KCQT 300747Z AUTO 00000KT 6SM BR CLR 16/14 A3002 RMK AO2
SLP164 T01560139 402560133





000
SAUS46 KLOX 300736
MTRMWS
METAR KMWS 300730Z 23500G00KT MM/M02 RMK SNOW DEPTH 3.00





000
SAUS46 KLOX 300736
MTRMWS
METAR KMWS 300730Z 23500G00KT MM/M02 RMK SNOW DEPTH 3.00





000
SAUS46 KLOX 300715
MTRMWS
METAR KMWS 300700Z 15506G08KT 12/M04 RMK SNOW DEPTH 3.00





000
SAUS46 KLOX 300715
MTRMWS
METAR KMWS 300700Z 15506G08KT 12/M04 RMK SNOW DEPTH 3.00





000
SAUS46 KLOX 300656
MTR9L2
METAR K9L2 300655Z AUTO 20004KT 10SM CLR 16/02 A3003 RMK AO2 SLP159
T01610022 $





000
SAUS46 KLOX 300656
MTR9L2
METAR K9L2 300655Z AUTO 20004KT 10SM CLR 16/02 A3003 RMK AO2 SLP159
T01610022 $





000
SAUS46 KLOX 300654
MTRMWS
METAR KMWS 300645Z 16007G08KT 13/M03 RMK SNOW DEPTH 3.00





000
SAUS46 KLOX 300654
MTRMWS
METAR KMWS 300645Z 16007G08KT 13/M03 RMK SNOW DEPTH 3.00





000
SAUS46 KLOX 300649
MTRSDB
METAR KSDB 300648Z AUTO 33013KT 10SM CLR 16/M04 A3016 RMK AO2 SLP161
T01611044 $





000
SAUS46 KLOX 300648
MTRCQT
METAR KCQT 300647Z AUTO 00000KT 6SM BR CLR 16/14 A3002 RMK AO2
SLP165 T01560139





000
SAUS46 KLOX 300648
MTRCQT
METAR KCQT 300647Z AUTO 00000KT 6SM BR CLR 16/14 A3002 RMK AO2
SLP165 T01560139





000
SAUS46 KLOX 300636
MTRMWS
METAR KMWS 300630Z 23500G00KT MM/M04 RMK SNOW DEPTH 3.00





000
SAUS46 KLOX 300636
MTRMWS
METAR KMWS 300630Z 23500G00KT MM/M04 RMK SNOW DEPTH 3.00





000
SAUS46 KLOX 300615
MTRMWS
METAR KMWS 300600Z 17506G10KT 13/M08 RMK SNOW DEPTH 3.00





000
SAUS46 KLOX 300615
MTRMWS
METAR KMWS 300600Z 17506G10KT 13/M08 RMK SNOW DEPTH 3.00





000
SAUS46 KLOX 300559
MTR9L2
METAR K9L2 300555Z AUTO 25003KT 10SM CLR 18/03 A3003 RMK AO2 SLP159
T01780028 10306 20167 51015 $





000
SAUS46 KLOX 300559
MTR9L2
METAR K9L2 300555Z AUTO 25003KT 10SM CLR 18/03 A3003 RMK AO2 SLP159
T01780028 10306 20167 51015 $





000
SAUS46 KLOX 300557
MTRMWS
METAR KMWS 300545Z 18006G10KT 13/M07 RMK SNOW DEPTH 3.00





000
SAUS46 KLOX 300557
MTRMWS
METAR KMWS 300545Z 18006G10KT 13/M07 RMK SNOW DEPTH 3.00





000
SAUS46 KLOX 300551
MTRCQT
SPECI KCQT 300550Z AUTO 00000KT 6SM BR SCT007 16/14 A3002 RMK AO2
T01610144





000
SAUS46 KLOX 300551
MTRCQT
SPECI KCQT 300550Z AUTO 00000KT 6SM BR SCT007 16/14 A3002 RMK AO2
T01610144





000
SAUS46 KLOX 300549
MTRSDB
METAR KSDB 300548Z AUTO 33011KT 10SM CLR 16/M02 A3016 RMK AO2 SLP164
T01611017 10256 20156 50003 $





000
SAUS46 KLOX 300549
MTRCQT
METAR KCQT 300547Z AUTO 00000KT 6SM BR BKN007 16/14 A3002 RMK AO2
SLP165 T01610144 10233 20161 51011





000
SAUS46 KLOX 300549
MTRCQT
METAR KCQT 300547Z AUTO 00000KT 6SM BR BKN007 16/14 A3002 RMK AO2
SLP165 T01610144 10233 20161 51011





000
SAUS46 KLOX 300549
MTRSDB
METAR KSDB 300548Z AUTO 33011KT 10SM CLR 16/M02 A3016 RMK AO2 SLP164
T01611017 10256 20156 50003 $





000
SAUS46 KLOX 300537
MTRCQT
SPECI KCQT 300536Z AUTO 00000KT 6SM BR BKN007 16/14 A3002 RMK AO2
T01610144





000
SAUS46 KLOX 300537
MTRCQT
SPECI KCQT 300536Z AUTO 00000KT 6SM BR BKN007 16/14 A3002 RMK AO2
T01610144





000
SAUS46 KLOX 300536
MTRMWS
METAR KMWS 300530Z 23500G00KT MM/M07 RMK SNOW DEPTH 3.00





000
SAUS46 KLOX 300536
MTRMWS
METAR KMWS 300530Z 23500G00KT MM/M07 RMK SNOW DEPTH 3.00





000
SAUS46 KLOX 300528
MTRCQT
SPECI KCQT 300527Z AUTO 00000KT 7SM FEW007 16/14 A3002 RMK AO2
T01610144





000
SAUS46 KLOX 300528
MTRCQT
SPECI KCQT 300527Z AUTO 00000KT 7SM FEW007 16/14 A3002 RMK AO2
T01610144





000
SAUS46 KLOX 300515
MTRMWS
METAR KMWS 300500Z 16007G10KT 13/M09 RMK SNOW DEPTH 3.00





000
SAUS46 KLOX 300515
MTRMWS
METAR KMWS 300500Z 16007G10KT 13/M09 RMK SNOW DEPTH 3.00





000
SAUS46 KLOX 300455
MTR9L2
METAR K9L2 300455Z AUTO 25009KT 10SM CLR 19/03 A3003 RMK AO2 SLP160
T01940028 $





000
SAUS46 KLOX 300455
MTR9L2
METAR K9L2 300455Z AUTO 25009KT 10SM CLR 19/03 A3003 RMK AO2 SLP160
T01940028 $





000
SAUS46 KLOX 300454
MTRMWS
METAR KMWS 300445Z 16507G09KT 13/M11 RMK SNOW DEPTH 3.00





000
SAUS46 KLOX 300454
MTRMWS
METAR KMWS 300445Z 16507G09KT 13/M11 RMK SNOW DEPTH 3.00





000
SAUS46 KLOX 300450
MTRSDB
METAR KSDB 300448Z AUTO 33015KT 10SM CLR 16/03 A3016 RMK AO2 SLP169
T01610033 $





000
SAUS46 KLOX 300449
MTRCQT
METAR KCQT 300447Z AUTO VRB03KT 7SM CLR 17/14 A3002 RMK AO2 SLP163
T01670144





000
SAUS46 KLOX 300436
MTRMWS
METAR KMWS 300430Z 23500G00KT MM/M10 RMK SNOW DEPTH 3.00





000
SAUS46 KLOX 300436
MTRMWS
METAR KMWS 300430Z 23500G00KT MM/M10 RMK SNOW DEPTH 3.00





000
SAUS46 KLOX 300415
MTRMWS
METAR KMWS 300400Z 15507G09KT 15/M16 RMK SNOW DEPTH 3.00





000
SAUS46 KLOX 300415
MTRMWS
METAR KMWS 300400Z 15507G09KT 15/M16 RMK SNOW DEPTH 3.00





000
SAUS46 KLOX 300356
MTR9L2
METAR K9L2 300355Z AUTO 27008KT 10SM CLR 21/04 A3001 RMK AO2 SLP155
T02110039 $





000
SAUS46 KLOX 300356
MTR9L2
METAR K9L2 300355Z AUTO 27008KT 10SM CLR 21/04 A3001 RMK AO2 SLP155
T02110039 $





000
SAUS46 KLOX 300354
MTRMWS
METAR KMWS 300345Z 15507G08KT 15/M12 RMK SNOW DEPTH 3.00





000
SAUS46 KLOX 300354
MTRMWS
METAR KMWS 300345Z 15507G08KT 15/M12 RMK SNOW DEPTH 3.00





000
SAUS46 KLOX 300349
MTRCQT
METAR KCQT 300347Z AUTO 00000KT 8SM CLR 17/14 A3001 RMK AO2 SLP159
T01720144





000
SAUS46 KLOX 300349
MTRSDB
METAR KSDB 300348Z AUTO 35008KT 10SM CLR 16/04 A3016 RMK AO2 SLP172
T01560039 $





000
SAUS46 KLOX 300336
MTRMWS
METAR KMWS 300330Z 23500G00KT MM/M13 RMK SNOW DEPTH 3.00





000
SAUS46 KLOX 300315
MTRMWS
METAR KMWS 300300Z 13507G07KT 15/M10 RMK SNOW DEPTH 3.00





000
SAUS46 KLOX 300315
MTRMWS
METAR KMWS 300300Z 13507G07KT 15/M10 RMK SNOW DEPTH 3.00





000
SAUS46 KLOX 300259
MTR9L2
METAR K9L2 300255Z AUTO 27013KT 10SM CLR 23/04 A2999 RMK AO2 SLP148
T02280044 53006 $





000
SAUS46 KLOX 300254
MTRMWS
METAR KMWS 300245Z 14007G07KT 15/M12 RMK SNOW DEPTH 3.00





000
SAUS46 KLOX 300254
MTRMWS
METAR KMWS 300245Z 14007G07KT 15/M12 RMK SNOW DEPTH 3.00





000
SAUS46 KLOX 300249
MTRSDB
METAR KSDB 300248Z AUTO 33007KT 10SM CLR 17/04 A3015 RMK AO2 SLP168
T01670044 53006 $





000
SAUS46 KLOX 300249
MTRSDB
METAR KSDB 300248Z AUTO 33007KT 10SM CLR 17/04 A3015 RMK AO2 SLP168
T01670044 53006 $





000
SAUS46 KLOX 300248
MTRCQT
METAR KCQT 300247Z AUTO 28004KT 8SM CLR 18/14 A2999 RMK AO2 SLP154
T01780144 53009





000
SAUS46 KLOX 300248
MTRCQT
METAR KCQT 300247Z AUTO 28004KT 8SM CLR 18/14 A2999 RMK AO2 SLP154
T01780144 53009





000
SAUS46 KLOX 300236
MTRMWS
METAR KMWS 300230Z 23500G00KT MM/M11 RMK SNOW DEPTH 3.00





000
SAUS46 KLOX 300236
MTRMWS
METAR KMWS 300230Z 23500G00KT MM/M11 RMK SNOW DEPTH 3.00





000
SAUS46 KLOX 300215
MTRMWS
METAR KMWS 300200Z 17004G08KT 18/M10 RMK SNOW DEPTH 3.00





000
SAUS46 KLOX 300156
MTR9L2
METAR K9L2 300155Z AUTO 25012KT 10SM CLR 27/M09 A2997 RMK AO2 SLP142
T02671094 $





000
SAUS46 KLOX 300156
MTR9L2
METAR K9L2 300155Z AUTO 25012KT 10SM CLR 27/M09 A2997 RMK AO2 SLP142
T02671094 $





000
SAUS46 KLOX 300154
MTRMWS
METAR KMWS 300145Z 19005G08KT 19/M05 RMK SNOW DEPTH 3.00





000
SAUS46 KLOX 300149
MTRCQT
METAR KCQT 300147Z AUTO 00000KT 10SM CLR 21/12 A2997 RMK AO2 SLP147
T02060122





000
SAUS46 KLOX 300149
MTRCQT
METAR KCQT 300147Z AUTO 00000KT 10SM CLR 21/12 A2997 RMK AO2 SLP147
T02060122





000
SAUS46 KLOX 300149
MTRSDB
METAR KSDB 300148Z AUTO 33008KT 10SM CLR 18/05 A3014 RMK AO2 SLP164
T01830050 $





000
SAUS46 KLOX 300149
MTRSDB
METAR KSDB 300148Z AUTO 33008KT 10SM CLR 18/05 A3014 RMK AO2 SLP164
T01830050 $





000
SAUS46 KLOX 300136
MTRMWS
METAR KMWS 300130Z 23500G00KT MM/M04 RMK SNOW DEPTH 3.00





000
SAUS46 KLOX 300136
MTRMWS
METAR KMWS 300130Z 23500G00KT MM/M04 RMK SNOW DEPTH 3.00





000
SAUS46 KLOX 300115
MTRMWS
METAR KMWS 300100Z 21506G08KT 21/M03 RMK SNOW DEPTH 4.00





000
SAUS46 KLOX 300115
MTRMWS
METAR KMWS 300100Z 21506G08KT 21/M03 RMK SNOW DEPTH 4.00





000
SAUS46 KLOX 300059
MTR9L2
METAR K9L2 300055Z AUTO 23008G16KT 10SM CLR 29/M10 A2996 RMK AO2
SLP137 T02941100 $





000
SAUS46 KLOX 300059
MTR9L2
METAR K9L2 300055Z AUTO 23008G16KT 10SM CLR 29/M10 A2996 RMK AO2
SLP137 T02941100 $





000
SAUS46 KLOX 300054
MTRMWS
METAR KMWS 300045Z 20507G09KT 20/M07 RMK SNOW DEPTH 4.00





000
SAUS46 KLOX 300054
MTRMWS
METAR KMWS 300045Z 20507G09KT 20/M07 RMK SNOW DEPTH 4.00





000
SAUS46 KLOX 300049
MTRSDB
METAR KSDB 300048Z AUTO 17006KT 10SM CLR 22/M03 A3013 RMK AO2 SLP158
T02221033 $





000
SAUS46 KLOX 300049
MTRSDB
METAR KSDB 300048Z AUTO 17006KT 10SM CLR 22/M03 A3013 RMK AO2 SLP158
T02221033 $





000
SAUS46 KLOX 300048
MTRCQT
METAR KCQT 300047Z AUTO 00000KT 10SM CLR 22/13 A2996 RMK AO2 SLP144
T02220133





000
SAUS46 KLOX 300048
MTRCQT
METAR KCQT 300047Z AUTO 00000KT 10SM CLR 22/13 A2996 RMK AO2 SLP144
T02220133





000
SAUS46 KLOX 300036
MTRMWS
METAR KMWS 300030Z 23500G00KT MM/M01 RMK SNOW DEPTH 4.00





000
SAUS46 KLOX 300036
MTRMWS
METAR KMWS 300030Z 23500G00KT MM/M01 RMK SNOW DEPTH 4.00





000
SAUS46 KLOX 300015
MTRMWS
METAR KMWS 300000Z 21005G06KT 20/06 RMK SNOW DEPTH 4.00





000
SAUS46 KLOX 300015
MTRMWS
METAR KMWS 300000Z 21005G06KT 20/06 RMK SNOW DEPTH 4.00





000
SAUS46 KLOX 292359
MTR9L2
METAR K9L2 292355Z AUTO 18005KT 10SM CLR 30/M12 A2997 RMK AO2 SLP138
T03001117 10300 20206 56020 $





000
SAUS46 KLOX 292359
MTR9L2
METAR K9L2 292355Z AUTO 18005KT 10SM CLR 30/M12 A2997 RMK AO2 SLP138
T03001117 10300 20206 56020 $





000
SAUS46 KLOX 292354
MTRMWS
METAR KMWS 292345Z 23500G00KT MM/04 RMK SNOW DEPTH 3.00





000
SAUS46 KLOX 292354
MTRMWS
METAR KMWS 292345Z 23500G00KT MM/04 RMK SNOW DEPTH 3.00





000
SAUS46 KLOX 292350
MTRSDB
METAR KSDB 292348Z AUTO 17008KT 140V200 10SM CLR 25/M06 A3013 RMK
AO2 SLP154 T02501056 10278 20228 56010 $





000
SAUS46 KLOX 292350
MTRSDB
METAR KSDB 292348Z AUTO 17008KT 140V200 10SM CLR 25/M06 A3013 RMK
AO2 SLP154 T02501056 10278 20228 56010 $





000
SAUS46 KLOX 292349
MTRCQT
METAR KCQT 292347Z AUTO 28005KT 10SM CLR 23/13 A2996 RMK AO2 SLP145
T02330133 10256 20233 56013





000
SAUS46 KLOX 292349
MTRCQT
METAR KCQT 292347Z AUTO 28005KT 10SM CLR 23/13 A2996 RMK AO2 SLP145
T02330133 10256 20233 56013





000
SAUS46 KLOX 292336
MTRMWS
METAR KMWS 292330Z 23500G00KT MM/04 RMK SNOW DEPTH 4.00





000
SAUS46 KLOX 292336
MTRMWS
METAR KMWS 292330Z 23500G00KT MM/04 RMK SNOW DEPTH 4.00





000
SAUS46 KLOX 292315
MTRMWS
METAR KMWS 292300Z 22005G07KT 22/06 RMK SNOW DEPTH 4.00





000
SAUS46 KLOX 292315
MTRMWS
METAR KMWS 292300Z 22005G07KT 22/06 RMK SNOW DEPTH 4.00





000
SAUS46 KLOX 292259
MTR9L2
METAR K9L2 292255Z AUTO 16005KT 10SM CLR 29/M10 A2999 RMK AO2 SLP144
T02941100 $





000
SAUS46 KLOX 292259
MTR9L2
METAR K9L2 292255Z AUTO 16005KT 10SM CLR 29/M10 A2999 RMK AO2 SLP144
T02941100 $





000
SAUS46 KLOX 292254
MTRMWS
METAR KMWS 292245Z 23500G00KT MM/06 RMK SNOW DEPTH 5.00





000
SAUS46 KLOX 292254
MTRMWS
METAR KMWS 292245Z 23500G00KT MM/06 RMK SNOW DEPTH 5.00





000
SAUS46 KLOX 292250
MTRSDB
METAR KSDB 292248Z AUTO 21010G18KT 10SM CLR 26/M07 A3014 RMK AO2
SLP155 T02611072 $





000
SAUS46 KLOX 292250
MTRSDB
METAR KSDB 292248Z AUTO 21010G18KT 10SM CLR 26/M07 A3014 RMK AO2
SLP155 T02611072 $





000
SAUS46 KLOX 292250
MTRCQT
METAR KCQT 292247Z AUTO 26003KT 10SM CLR 24/13 A2997 RMK AO2 SLP147
T02390133





000
SAUS46 KLOX 292250
MTRCQT
METAR KCQT 292247Z AUTO 26003KT 10SM CLR 24/13 A2997 RMK AO2 SLP147
T02390133





000
SAUS46 KLOX 292236
MTRMWS
METAR KMWS 292230Z 23500G00KT MM/02 RMK SNOW DEPTH 4.00





000
SAUS46 KLOX 292215
MTRMWS
METAR KMWS 292200Z 24504G06KT 22/03 RMK SNOW DEPTH 4.00





000
SAUS46 KLOX 292215
MTRMWS
METAR KMWS 292200Z 24504G06KT 22/03 RMK SNOW DEPTH 4.00





000
SAUS46 KLOX 292155
MTR9L2
METAR K9L2 292155Z AUTO 16003KT 10SM CLR 29/M11 A3001 RMK AO2 SLP151
T02891106 $





000
SAUS46 KLOX 292155
MTR9L2
METAR K9L2 292155Z AUTO 16003KT 10SM CLR 29/M11 A3001 RMK AO2 SLP151
T02891106 $





000
SAUS46 KLOX 292154
MTRMWS
METAR KMWS 292145Z 21003G06KT 22/04 RMK SNOW DEPTH 4.00





000
SAUS46 KLOX 292154
MTRMWS
METAR KMWS 292145Z 21003G06KT 22/04 RMK SNOW DEPTH 4.00





000
SAUS46 KLOX 292149
MTRSDB
METAR KSDB 292148Z AUTO 15014G19KT 10SM CLR 27/M12 A3015 RMK AO2
SLP158 T02721122 $





000
SAUS46 KLOX 292149
MTRSDB
METAR KSDB 292148Z AUTO 15014G19KT 10SM CLR 27/M12 A3015 RMK AO2
SLP158 T02721122 $





000
SAUS46 KLOX 292148
MTRCQT
METAR KCQT 292147Z AUTO VRB04KT 10SM CLR 24/14 A2998 RMK AO2 SLP152
T02440139





000
SAUS46 KLOX 292136
MTRMWS
METAR KMWS 292130Z 23500G00KT MM/03 RMK SNOW DEPTH 3.00





000
SAUS46 KLOX 292115
MTRMWS
METAR KMWS 292100Z 21005G08KT 21/01 RMK SNOW DEPTH 4.00





000
SAUS46 KLOX 292056
MTR9L2
METAR K9L2 292055Z AUTO 00000KT 10SM CLR 28/M04 A3003 RMK AO2 SLP158
T02781044 58024 $





000
SAUS46 KLOX 292056
MTR9L2
METAR K9L2 292055Z AUTO 00000KT 10SM CLR 28/M04 A3003 RMK AO2 SLP158
T02781044 58024 $





000
SAUS46 KLOX 292054
MTRMWS
METAR KMWS 292045Z 20505G08KT 22/02 RMK SNOW DEPTH 3.00





000
SAUS46 KLOX 292049
MTRSDB
METAR KSDB 292048Z AUTO 15008G16KT 110V210 10SM CLR 27/M12 A3016 RMK
AO2 SLP163 T02721122 58013 $





000
SAUS46 KLOX 292049
MTRSDB
METAR KSDB 292048Z AUTO 15008G16KT 110V210 10SM CLR 27/M12 A3016 RMK
AO2 SLP163 T02721122 58013 $





000
SAUS46 KLOX 292048
MTRCQT
METAR KCQT 292047Z AUTO 00000KT 8SM CLR 24/14 A3000 RMK AO2 SLP158
T02440139 58015





000
SAUS46 KLOX 292048
MTRCQT
METAR KCQT 292047Z AUTO 00000KT 8SM CLR 24/14 A3000 RMK AO2 SLP158
T02440139 58015





000
SAUS46 KLOX 292036
MTRMWS
METAR KMWS 292030Z 23500G00KT MM/03 RMK SNOW DEPTH 4.00





000
SAUS46 KLOX 292015
MTRMWS
METAR KMWS 292000Z 20004G06KT 22/03 RMK SNOW DEPTH 4.00





000
SAUS46 KLOX 292015
MTRMWS
METAR KMWS 292000Z 20004G06KT 22/03 RMK SNOW DEPTH 4.00





000
SAUS46 KLOX 291956
MTR9L2
METAR K9L2 291955Z AUTO 15005KT 10SM CLR 26/M01 A3007 RMK AO2 SLP168
T02611011 $





000
SAUS46 KLOX 291956
MTR9L2
METAR K9L2 291955Z AUTO 15005KT 10SM CLR 26/M01 A3007 RMK AO2 SLP168
T02611011 $





000
SAUS46 KLOX 291954
MTRMWS
METAR KMWS 291945Z 23004G05KT 23/03 RMK SNOW DEPTH 4.00





000
SAUS46 KLOX 291954
MTRMWS
METAR KMWS 291945Z 23004G05KT 23/03 RMK SNOW DEPTH 4.00





000
SAUS46 KLOX 291949
MTRSDB
METAR KSDB 291948Z AUTO 10005KT 10SM CLR 26/M06 A3019 RMK AO2 SLP170
T02611056 $





000
SAUS46 KLOX 291949
MTRSDB
METAR KSDB 291948Z AUTO 10005KT 10SM CLR 26/M06 A3019 RMK AO2 SLP170
T02611056 $





000
SAUS46 KLOX 291948
MTRCQT
METAR KCQT 291947Z AUTO 28004KT 5SM HZ CLR 24/14 A3003 RMK AO2
SLP165 T02440139





000
SAUS46 KLOX 291948
MTRCQT
METAR KCQT 291947Z AUTO 28004KT 5SM HZ CLR 24/14 A3003 RMK AO2
SLP165 T02440139





000
SAUS46 KLOX 291936
MTRMWS
METAR KMWS 291930Z 23500G00KT MM/02 RMK SNOW DEPTH 4.00





000
SAUS46 KLOX 291936
MTRMWS
METAR KMWS 291930Z 23500G00KT MM/02 RMK SNOW DEPTH 4.00





000
SAUS46 KLOX 291915
MTRMWS
METAR KMWS 291900Z 24003G05KT 22/02 RMK SNOW DEPTH 4.00





000
SAUS46 KLOX 291915
MTRMWS
METAR KMWS 291900Z 24003G05KT 22/02 RMK SNOW DEPTH 4.00





000
SAUS46 KLOX 291855
MTR9L2
METAR K9L2 291855Z AUTO 16003KT 10SM CLR 24/01 A3009 RMK AO2 SLP178
T02390011 $





000
SAUS46 KLOX 291855
MTR9L2
METAR K9L2 291855Z AUTO 16003KT 10SM CLR 24/01 A3009 RMK AO2 SLP178
T02390011 $





000
SAUS46 KLOX 291854
MTRMWS
METAR KMWS 291845Z 23502G04KT 22/02 RMK SNOW DEPTH 4.00





000
SAUS46 KLOX 291854
MTRMWS
METAR KMWS 291845Z 23502G04KT 22/02 RMK SNOW DEPTH 4.00





000
SAUS46 KLOX 291849
MTRSDB
METAR KSDB 291848Z AUTO VRB04KT 10SM CLR 24/M03 A3021 RMK AO2 SLP180
T02441028 $





000
SAUS46 KLOX 291849
MTRSDB
METAR KSDB 291848Z AUTO VRB04KT 10SM CLR 24/M03 A3021 RMK AO2 SLP180
T02441028 $





000
SAUS46 KLOX 291848
MTRCQT
METAR KCQT 291847Z AUTO VRB05KT 4SM HZ CLR 24/14 A3004 RMK AO2
SLP170 T02390144





000
SAUS46 KLOX 291848
MTRCQT
METAR KCQT 291847Z AUTO VRB05KT 4SM HZ CLR 24/14 A3004 RMK AO2
SLP170 T02390144





000
SAUS46 KLOX 291836
MTRMWS
METAR KMWS 291830Z 23500G00KT MM/01 RMK SNOW DEPTH 3.00





000
SAUS46 KLOX 291836
MTRMWS
METAR KMWS 291830Z 23500G00KT MM/01 RMK SNOW DEPTH 3.00





000
SAUS46 KLOX 291815
MTRMWS
METAR KMWS 291800Z 24502G04KT 22/01 RMK SNOW DEPTH 3.00





000
SAUS46 KLOX 291815
MTRMWS
METAR KMWS 291800Z 24502G04KT 22/01 RMK SNOW DEPTH 3.00





000
SAUS46 KLOX 291756
MTR9L2
METAR K9L2 291755Z AUTO 12004KT 10SM CLR 21/03 A3011 RMK AO2 SLP185
T02060028 10211 20039 58001 $





000
SAUS46 KLOX 291756
MTR9L2
METAR K9L2 291755Z AUTO 12004KT 10SM CLR 21/03 A3011 RMK AO2 SLP185
T02060028 10211 20039 58001 $





000
SAUS46 KLOX 291754
MTRMWS
METAR KMWS 291745Z 25002G03KT 22/M01 RMK SNOW DEPTH 4.00





000
SAUS46 KLOX 291754
MTRMWS
METAR KMWS 291745Z 25002G03KT 22/M01 RMK SNOW DEPTH 4.00





000
SAUS46 KLOX 291749
MTRSDB
METAR KSDB 291748Z AUTO 03005KT 10SM CLR 23/M01 A3021 RMK AO2 SLP183
T02281011 10228 20128 53007 $





000
SAUS46 KLOX 291749
MTRSDB
METAR KSDB 291748Z AUTO 03005KT 10SM CLR 23/M01 A3021 RMK AO2 SLP183
T02281011 10228 20128 53007 $





000
SAUS46 KLOX 291748
MTRCQT
METAR KCQT 291747Z AUTO 00000KT 6SM HZ CLR 23/13 A3005 RMK AO2
SLP173 T02330128 10233 20139 55004





000
SAUS46 KLOX 291748
MTRCQT
METAR KCQT 291747Z AUTO 00000KT 6SM HZ CLR 23/13 A3005 RMK AO2
SLP173 T02330128 10233 20139 55004





000
SAUS46 KLOX 291736
MTRMWS
METAR KMWS 291730Z 23500G00KT MM/M03 RMK SNOW DEPTH 4.00





000
SAUS46 KLOX 291736
MTRMWS
METAR KMWS 291730Z 23500G00KT MM/M03 RMK SNOW DEPTH 4.00





000
SAUS46 KLOX 291715
MTRMWS
METAR KMWS 291700Z 06001G02KT 22/M06 RMK SNOW DEPTH 4.00





000
SAUS46 KLOX 291715
MTRMWS
METAR KMWS 291700Z 06001G02KT 22/M06 RMK SNOW DEPTH 4.00





000
SAUS46 KLOX 291656
MTR9L2
METAR K9L2 291655Z AUTO 10003KT 10SM CLR 18/02 A3012 RMK AO2 SLP191
T01780022 $





000
SAUS46 KLOX 291656
MTR9L2
METAR K9L2 291655Z AUTO 10003KT 10SM CLR 18/02 A3012 RMK AO2 SLP191
T01780022 $





000
SAUS46 KLOX 291654
MTRMWS
METAR KMWS 291645Z 07002G03KT 22/M07 RMK SNOW DEPTH 3.00





000
SAUS46 KLOX 291649
MTRSDB
METAR KSDB 291648Z AUTO 36005KT 10SM CLR 19/02 A3020 RMK AO2 SLP182
T01890022 $





000
SAUS46 KLOX 291649
MTRSDB
METAR KSDB 291648Z AUTO 36005KT 10SM CLR 19/02 A3020 RMK AO2 SLP182
T01890022 $





000
SAUS46 KLOX 291648
MTRCQT
METAR KCQT 291647Z AUTO 00000KT 4SM HZ CLR 20/13 A3005 RMK AO2
SLP173 T02000133





000
SAUS46 KLOX 291648
MTRCQT
METAR KCQT 291647Z AUTO 00000KT 4SM HZ CLR 20/13 A3005 RMK AO2
SLP173 T02000133





000
SAUS46 KLOX 291636
MTRMWS
METAR KMWS 291630Z 23500G00KT MM/M05 RMK SNOW DEPTH 3.00





000
SAUS46 KLOX 291615
MTRMWS
METAR KMWS 291600Z 25501G02KT 21/M09 RMK SNOW DEPTH 3.00





000
SAUS46 KLOX 291615
MTRMWS
METAR KMWS 291600Z 25501G02KT 21/M09 RMK SNOW DEPTH 3.00





000
SAUS46 KLOX 291555
MTR9L2
METAR K9L2 291555Z AUTO 00000KT 10SM CLR 13/00 A3012 RMK AO2 SLP193
T01280000 TSNO $





000
SAUS46 KLOX 291554
MTRMWS
METAR KMWS 291545Z 03001G01KT 21/M05 RMK SNOW DEPTH 3.00





000
SAUS46 KLOX 291554
MTRMWS
METAR KMWS 291545Z 03001G01KT 21/M05 RMK SNOW DEPTH 3.00





000
SAUS46 KLOX 291549
MTRSDB
METAR KSDB 291548Z AUTO 34008KT 10SM CLR 18/03 A3019 RMK AO2 SLP179
T01780033 $





000
SAUS46 KLOX 291548
MTRCQT
METAR KCQT 291547Z AUTO 12004KT 3SM HZ FEW007 17/14 A3004 RMK AO2
SLP171 T01720139





000
SAUS46 KLOX 291541
MTRCQT
SPECI KCQT 291537Z AUTO VRB03KT 3SM HZ SCT007 17/13 A3004 RMK AO2
T01670133





000
SAUS46 KLOX 291536
MTRMWS
METAR KMWS 291530Z 23500G00KT MM/M10 RMK SNOW DEPTH 3.00





000
SAUS46 KLOX 291536
MTRMWS
METAR KMWS 291530Z 23500G00KT MM/M10 RMK SNOW DEPTH 3.00





000
SAUS46 KLOX 291527
MTRCQT
SPECI KCQT 291526Z AUTO VRB04KT 3SM BR BKN007 16/14 A3005 RMK AO2
T01610139





000
SAUS46 KLOX 291527
MTRCQT
SPECI KCQT 291526Z AUTO VRB04KT 3SM BR BKN007 16/14 A3005 RMK AO2
T01610139





000
SAUS46 KLOX 291515
MTRMWS
METAR KMWS 291500Z 18501G01KT 16/M12 RMK SNOW DEPTH 3.00





000
SAUS46 KLOX 291515
MTRMWS
METAR KMWS 291500Z 18501G01KT 16/M12 RMK SNOW DEPTH 3.00





000
SAUS46 KLOX 291501
MTRCQT
SPECI KCQT 291500Z AUTO 07004KT 2 1/2SM BR OVC005 15/14 A3005 RMK
AO2 T01500139





000
SAUS46 KLOX 291501
MTRCQT
SPECI KCQT 291500Z AUTO 07004KT 2 1/2SM BR OVC005 15/14 A3005 RMK
AO2 T01500139





000
SAUS46 KLOX 291455
MTR9L2
METAR K9L2 291455Z AUTO 00000KT 10SM CLR 09/00 A3011 RMK AO2 SLP192
T00940000 52013 TSNO $





000
SAUS46 KLOX 291455
MTR9L2
METAR K9L2 291455Z AUTO 00000KT 10SM CLR 09/00 A3011 RMK AO2 SLP192
T00940000 52013 TSNO $





000
SAUS46 KLOX 291454
MTRMWS
METAR KMWS 291445Z 19504G05KT 15/M12 RMK SNOW DEPTH 3.00





000
SAUS46 KLOX 291449
MTRSDB
METAR KSDB 291448Z AUTO 33012KT 10SM CLR 15/04 A3019 RMK AO2 SLP181
T01500039 53007 $





000
SAUS46 KLOX 291448
MTRCQT
METAR KCQT 291447Z AUTO 10003KT 2SM BR OVC004 15/14 A3006 RMK AO2
SLP177 T01500139 53009





000
SAUS46 KLOX 291448
MTRCQT
METAR KCQT 291447Z AUTO 10003KT 2SM BR OVC004 15/14 A3006 RMK AO2
SLP177 T01500139 53009





000
SAUS46 KLOX 291441
MTRCQT
SPECI KCQT 291440Z AUTO 00000KT 2SM BR OVC003 15/14 A3006 RMK AO2
T01500139





000
SAUS46 KLOX 291441
MTRCQT
SPECI KCQT 291440Z AUTO 00000KT 2SM BR OVC003 15/14 A3006 RMK AO2
T01500139





000
SAUS46 KLOX 291436
MTRMWS
METAR KMWS 291430Z 23500G00KT MM/M11 RMK SNOW DEPTH 3.00





000
SAUS46 KLOX 291415
MTRMWS
METAR KMWS 291400Z 19006G06KT 13/M14 RMK SNOW DEPTH 3.00





000
SAUS46 KLOX 291415
MTRMWS
METAR KMWS 291400Z 19006G06KT 13/M14 RMK SNOW DEPTH 3.00





000
SAUS46 KLOX 291355
MTR9L2
METAR K9L2 291355Z AUTO 35003KT 10SM CLR 04/M02 A3010 RMK AO2 SLP188
T00391017 TSNO $





000
SAUS46 KLOX 291354
MTRMWS
METAR KMWS 291345Z 17505G06KT 12/M13 RMK SNOW DEPTH 3.00





000
SAUS46 KLOX 291354
MTRMWS
METAR KMWS 291345Z 17505G06KT 12/M13 RMK SNOW DEPTH 3.00





000
SAUS46 KLOX 291349
MTRSDB
METAR KSDB 291348Z AUTO 35011KT 10SM CLR 13/03 A3017 RMK AO2 SLP176
T01330033 $





000
SAUS46 KLOX 291349
MTRSDB
METAR KSDB 291348Z AUTO 35011KT 10SM CLR 13/03 A3017 RMK AO2 SLP176
T01330033 $





000
SAUS46 KLOX 291348
MTRCQT
METAR KCQT 291347Z AUTO 14003KT 1 1/2SM BR OVC002 14/14 A3005 RMK
AO2 SLP175 T01440139





000
SAUS46 KLOX 291348
MTRCQT
METAR KCQT 291347Z AUTO 14003KT 1 1/2SM BR OVC002 14/14 A3005 RMK
AO2 SLP175 T01440139





000
SAUS46 KLOX 291336
MTRMWS
METAR KMWS 291330Z 23500G00KT MM/M13 RMK SNOW DEPTH 3.00





000
SAUS46 KLOX 291331
MTRCQT
SPECI KCQT 291330Z AUTO 00000KT 1SM BR VV002 14/14 A3005 RMK AO2
T01390139





000
SAUS46 KLOX 291331
MTRCQT
SPECI KCQT 291330Z AUTO 00000KT 1SM BR VV002 14/14 A3005 RMK AO2
T01390139





000
SAUS46 KLOX 291315
MTRMWS
METAR KMWS 291300Z 16003G05KT 13/M13 RMK SNOW DEPTH 3.00





000
SAUS46 KLOX 291315
MTRMWS
METAR KMWS 291300Z 16003G05KT 13/M13 RMK SNOW DEPTH 3.00





000
SAUS46 KLOX 291258
MTR9L2
METAR K9L2 291255Z AUTO 00000KT 10SM CLR 06/M01 A3009 RMK AO2 SLP181
T00561011 TSNO $





000
SAUS46 KLOX 291258
MTR9L2
METAR K9L2 291255Z AUTO 00000KT 10SM CLR 06/M01 A3009 RMK AO2 SLP181
T00561011 TSNO $





000
SAUS46 KLOX 291254
MTRMWS
METAR KMWS 291245Z 18504G05KT 12/M14 RMK SNOW DEPTH 3.00





000
SAUS46 KLOX 291254
MTRMWS
METAR KMWS 291245Z 18504G05KT 12/M14 RMK SNOW DEPTH 3.00





000
SAUS46 KLOX 291249
MTRSDB
METAR KSDB 291248Z AUTO 34013KT 10SM CLR 13/04 A3017 RMK AO2 SLP172
T01330039 $





000
SAUS46 KLOX 291249
MTRSDB
METAR KSDB 291248Z AUTO 34013KT 10SM CLR 13/04 A3017 RMK AO2 SLP172
T01330039 $





000
SAUS46 KLOX 291248
MTRCQT
METAR KCQT 291247Z AUTO 00000KT 1/4SM FG VV002 14/14 A3004 RMK AO2
SLP170 T01390139





000
SAUS46 KLOX 291248
MTRCQT
METAR KCQT 291247Z AUTO 00000KT 1/4SM FG VV002 14/14 A3004 RMK AO2
SLP170 T01390139





000
SAUS46 KLOX 291236
MTRMWS
METAR KMWS 291230Z 23500G00KT MM/M13 RMK SNOW DEPTH 3.00





000
SAUS46 KLOX 291236
MTRMWS
METAR KMWS 291230Z 23500G00KT MM/M13 RMK SNOW DEPTH 3.00





000
SAUS46 KLOX 291215
MTRMWS
METAR KMWS 291200Z 21004G05KT 12/M13 RMK SNOW DEPTH 3.00





000
SAUS46 KLOX 291215
MTRMWS
METAR KMWS 291200Z 21004G05KT 12/M13 RMK SNOW DEPTH 3.00





000
SAUS46 KLOX 291156
MTR9L2
METAR K9L2 291155Z AUTO 33004KT 10SM CLR 06/M01 A3007 RMK AO2 SLP174
T00611006 10183 20061 55002 TSNO $





000
SAUS46 KLOX 291156
MTR9L2
METAR K9L2 291155Z AUTO 33004KT 10SM CLR 06/M01 A3007 RMK AO2 SLP174
T00611006 10183 20061 55002 TSNO $





000
SAUS46 KLOX 291154
MTRMWS
METAR KMWS 291145Z 21005G07KT 13/M13 RMK SNOW DEPTH 3.00





000
SAUS46 KLOX 291154
MTRMWS
METAR KMWS 291145Z 21005G07KT 13/M13 RMK SNOW DEPTH 3.00





000
SAUS46 KLOX 291149
MTRSDB
METAR KSDB 291148Z AUTO 34013KT 10SM CLR 13/03 A3016 RMK AO2 SLP168
T01330028 10150 20133 56008 $





000
SAUS46 KLOX 291149
MTRSDB
METAR KSDB 291148Z AUTO 34013KT 10SM CLR 13/03 A3016 RMK AO2 SLP168
T01330028 10150 20133 56008 $





000
SAUS46 KLOX 291148
MTRCQT
METAR KCQT 291147Z AUTO 00000KT 1/4SM FG VV002 14/13 A3003 RMK AO2
SLP168 T01390133 10167 20133 55001





000
SAUS46 KLOX 291148
MTRCQT
METAR KCQT 291147Z AUTO 00000KT 1/4SM FG VV002 14/13 A3003 RMK AO2
SLP168 T01390133 10167 20133 55001





000
SAUS46 KLOX 291136
MTRMWS
METAR KMWS 291130Z 23500G00KT MM/M12 RMK SNOW DEPTH 3.00





000
SAUS46 KLOX 291136
MTRMWS
METAR KMWS 291130Z 23500G00KT MM/M12 RMK SNOW DEPTH 3.00





000
SAUS46 KLOX 291115
MTRMWS
METAR KMWS 291100Z 18004G06KT 12/M13 RMK SNOW DEPTH 3.00





000
SAUS46 KLOX 291115
MTRMWS
METAR KMWS 291100Z 18004G06KT 12/M13 RMK SNOW DEPTH 3.00





000
SAUS46 KLOX 291056
MTR9L2
METAR K9L2 291055Z AUTO 21004KT 10SM CLR 07/M01 A3007 RMK AO2 SLP172
T00721006 $





000
SAUS46 KLOX 291056
MTR9L2
METAR K9L2 291055Z AUTO 21004KT 10SM CLR 07/M01 A3007 RMK AO2 SLP172
T00721006 $





000
SAUS46 KLOX 291054
MTRMWS
METAR KMWS 291045Z 16504G05KT 12/M14 RMK SNOW DEPTH 3.00





000
SAUS46 KLOX 291049
MTRSDB
METAR KSDB 291048Z AUTO 32015KT 10SM CLR 14/03 A3016 RMK AO2 SLP168
T01390028 $





000
SAUS46 KLOX 291048
MTRCQT
METAR KCQT 291047Z AUTO 00000KT 1/4SM FG VV003 13/13 A3002 RMK AO2
SLP163 T01330128





000
SAUS46 KLOX 291038
MTRCQT
SPECI KCQT 291037Z AUTO 00000KT 1/2SM FG VV003 14/13 A3002 RMK AO2
T01390128





000
SAUS46 KLOX 291038
MTRCQT
SPECI KCQT 291037Z AUTO 00000KT 1/2SM FG VV003 14/13 A3002 RMK AO2
T01390128





000
SAUS46 KLOX 291036
MTRMWS
METAR KMWS 291030Z 23500G00KT MM/M12 RMK SNOW DEPTH 3.00





000
SAUS46 KLOX 291036
MTRMWS
METAR KMWS 291030Z 23500G00KT MM/M12 RMK SNOW DEPTH 3.00





000
SAUS46 KLOX 291035
MTRCQT
SPECI KCQT 291034Z AUTO 00000KT 1SM BR VV003 14/13 A3002 RMK AO2
T01390128





000
SAUS46 KLOX 291035
MTRCQT
SPECI KCQT 291034Z AUTO 00000KT 1SM BR VV003 14/13 A3002 RMK AO2
T01390128





000
SAUS46 KLOX 291030
MTRCQT
SPECI KCQT 291028Z AUTO 00000KT 1 3/4SM BR SCT006 14/13 A3002 RMK
AO2 T01390128





000
SAUS46 KLOX 291030
MTRCQT
SPECI KCQT 291028Z AUTO 00000KT 1 3/4SM BR SCT006 14/13 A3002 RMK
AO2 T01390128





000
SAUS46 KLOX 291027
MTRCQT
SPECI KCQT 291025Z AUTO 00000KT 3SM BR FEW008 14/13 A3002 RMK AO2
T01390128





000
SAUS46 KLOX 291027
MTRCQT
SPECI KCQT 291025Z AUTO 00000KT 3SM BR FEW008 14/13 A3002 RMK AO2
T01390128





000
SAUS46 KLOX 291015
MTRMWS
METAR KMWS 291000Z 18005G07KT 12/M12 RMK SNOW DEPTH 3.00





000
SAUS46 KLOX 291015
MTRMWS
METAR KMWS 291000Z 18005G07KT 12/M12 RMK SNOW DEPTH 3.00





000
SAUS46 KLOX 290957
MTRMWS
METAR KMWS 290945Z 19502G05KT 12/M10 RMK SNOW DEPTH 3.00





000
SAUS46 KLOX 290956
MTR9L2
METAR K9L2 290955Z AUTO 00000KT 10SM CLR 11/01 A3007 RMK AO2 SLP172
T01060011 $





000
SAUS46 KLOX 290950
MTRSDB
METAR KSDB 290948Z AUTO 33013KT 10SM CLR 13/03 A3017 RMK AO2 SLP171
T01330028 $





000
SAUS46 KLOX 290949
MTRCQT
METAR KCQT 290947Z AUTO 00000KT 5SM BR CLR 15/14 A3003 RMK AO2
SLP166 T01500139





000
SAUS46 KLOX 290936
MTRMWS
METAR KMWS 290930Z 23500G00KT MM/M08 RMK SNOW DEPTH 3.00





000
SAUS46 KLOX 290915
MTRMWS
METAR KMWS 290900Z 19503G06KT 11/M06 RMK SNOW DEPTH 3.00





000
SAUS46 KLOX 290915
MTRMWS
METAR KMWS 290900Z 19503G06KT 11/M06 RMK SNOW DEPTH 3.00





000
SAUS46 KLOX 290855
MTR9L2
METAR K9L2 290855Z AUTO 00000KT 10SM CLR 14/02 A3008 RMK AO2 SLP171
T01390017 53001 $





000
SAUS46 KLOX 290854
MTRMWS
METAR KMWS 290845Z 20002G04KT 13/M07 RMK SNOW DEPTH 3.00





000
SAUS46 KLOX 290854
MTRMWS
METAR KMWS 290845Z 20002G04KT 13/M07 RMK SNOW DEPTH 3.00





000
SAUS46 KLOX 290849
MTRSDB
METAR KSDB 290848Z AUTO 32011KT 10SM CLR 14/03 A3019 RMK AO2 SLP173
T01390028 58005 $





000
SAUS46 KLOX 290848
MTRCQT
METAR KCQT 290847Z AUTO 00000KT 7SM CLR 16/14 A3004 RMK AO2 SLP168
T01560139 58003





000
SAUS46 KLOX 290836
MTRMWS
METAR KMWS 290830Z 23500G00KT MM/M08 RMK SNOW DEPTH 3.00





000
SAUS46 KLOX 290836
MTRMWS
METAR KMWS 290830Z 23500G00KT MM/M08 RMK SNOW DEPTH 3.00





000
SAUS46 KLOX 290815
MTRMWS
METAR KMWS 290800Z 15507G10KT 14/M11 RMK SNOW DEPTH 3.00





000
SAUS46 KLOX 290755
MTR9L2
METAR K9L2 290755Z AUTO 26004KT 10SM CLR 16/02 A3007 RMK AO2 SLP169
T01610017 403110089 $





000
SAUS46 KLOX 290755
MTR9L2
METAR K9L2 290755Z AUTO 26004KT 10SM CLR 16/02 A3007 RMK AO2 SLP169
T01610017 403110089 $





000
SAUS46 KLOX 290754
MTRMWS
METAR KMWS 290745Z 16506G10KT 13/M15 RMK SNOW DEPTH 3.00





000
SAUS46 KLOX 290754
MTRMWS
METAR KMWS 290745Z 16506G10KT 13/M15 RMK SNOW DEPTH 3.00





000
SAUS46 KLOX 290749
MTRSDB
METAR KSDB 290748Z AUTO 33012KT 10SM CLR 14/02 A3020 RMK AO2 SLP178
T01440022 402610139 $





000
SAUS46 KLOX 290748
MTRCQT
METAR KCQT 290747Z AUTO 00000KT 7SM CLR 16/14 A3004 RMK AO2 SLP170
T01610144 402720161





000
SAUS46 KLOX 290736
MTRMWS
METAR KMWS 290730Z 23500G00KT MM/M17 RMK SNOW DEPTH 3.00





000
SAUS46 KLOX 290736
MTRMWS
METAR KMWS 290730Z 23500G00KT MM/M17 RMK SNOW DEPTH 3.00





000
SAUS46 KLOX 290715
MTRMWS
METAR KMWS 290700Z 17006G10KT 14/M17 RMK SNOW DEPTH 3.00





000
SAUS46 KLOX 290715
MTRMWS
METAR KMWS 290700Z 17006G10KT 14/M17 RMK SNOW DEPTH 3.00





000
SAUS46 KLOX 290659
MTR9L2
METAR K9L2 290655Z AUTO 26010KT 10SM CLR 18/02 A3007 RMK AO2 SLP168
T01780022 $





000
SAUS46 KLOX 290659
MTR9L2
METAR K9L2 290655Z AUTO 26010KT 10SM CLR 18/02 A3007 RMK AO2 SLP168
T01780022 $





000
SAUS46 KLOX 290654
MTRMWS
METAR KMWS 290645Z 19004G05KT 13/M18 RMK SNOW DEPTH 3.00





000
SAUS46 KLOX 290654
MTRMWS
METAR KMWS 290645Z 19004G05KT 13/M18 RMK SNOW DEPTH 3.00





000
SAUS46 KLOX 290649
MTRSDB
METAR KSDB 290648Z AUTO 33014KT 10SM CLR 14/02 A3021 RMK AO2 SLP181
T01440022 $





000
SAUS46 KLOX 290648
MTRCQT
METAR KCQT 290647Z AUTO 00000KT 8SM CLR 16/14 A3005 RMK AO2 SLP172
T01610139





000
SAUS46 KLOX 290648
MTRCQT
METAR KCQT 290647Z AUTO 00000KT 8SM CLR 16/14 A3005 RMK AO2 SLP172
T01610139





000
SAUS46 KLOX 290636
MTRMWS
METAR KMWS 290630Z 23500G00KT MM/M16 RMK SNOW DEPTH 3.00





000
SAUS46 KLOX 290636
MTRMWS
METAR KMWS 290630Z 23500G00KT MM/M16 RMK SNOW DEPTH 3.00





000
SAUS46 KLOX 290615
MTRMWS
METAR KMWS 290600Z 19507G10KT 13/M14 RMK SNOW DEPTH 3.00





000
SAUS46 KLOX 290615
MTRMWS
METAR KMWS 290600Z 19507G10KT 13/M14 RMK SNOW DEPTH 3.00





000
SAUS46 KLOX 290555
MTR9L2
METAR K9L2 290555Z AUTO 25011KT 10SM CLR 18/03 A3007 RMK AO2 SLP171
T01780028 10300 20172 51014 $





000
SAUS46 KLOX 290555
MTR9L2
METAR K9L2 290555Z AUTO 25011KT 10SM CLR 18/03 A3007 RMK AO2 SLP171
T01780028 10300 20172 51014 $





000
SAUS46 KLOX 290554
MTRMWS
METAR KMWS 290545Z 20505G06KT 13/M12 RMK SNOW DEPTH 3.00





000
SAUS46 KLOX 290554
MTRMWS
METAR KMWS 290545Z 20505G06KT 13/M12 RMK SNOW DEPTH 3.00





000
SAUS46 KLOX 290549
MTRCQT
METAR KCQT 290547Z AUTO 00000KT 8SM CLR 17/14 A3004 RMK AO2 SLP172
T01670144 10261 20167 51011





000
SAUS46 KLOX 290549
MTRCQT
METAR KCQT 290547Z AUTO 00000KT 8SM CLR 17/14 A3004 RMK AO2 SLP172
T01670144 10261 20167 51011





000
SAUS46 KLOX 290549
MTRSDB
METAR KSDB 290548Z AUTO 33010KT 10SM CLR 15/02 A3021 RMK AO2 SLP182
T01500017 10222 20144 51009 $





000
SAUS46 KLOX 290549
MTRSDB
METAR KSDB 290548Z AUTO 33010KT 10SM CLR 15/02 A3021 RMK AO2 SLP182
T01500017 10222 20144 51009 $





000
SAUS46 KLOX 290536
MTRMWS
METAR KMWS 290530Z 23500G00KT MM/M09 RMK SNOW DEPTH 3.00





000
SAUS46 KLOX 290536
MTRMWS
METAR KMWS 290530Z 23500G00KT MM/M09 RMK SNOW DEPTH 3.00





000
SAUS46 KLOX 290515
MTRMWS
METAR KMWS 290500Z 18006G08KT 12/M07 RMK SNOW DEPTH 3.00





000
SAUS46 KLOX 290515
MTRMWS
METAR KMWS 290500Z 18006G08KT 12/M07 RMK SNOW DEPTH 3.00





000
SAUS46 KLOX 290455
MTR9L2
METAR K9L2 290455Z AUTO 00000KT 10SM CLR 19/02 A3007 RMK AO2 SLP170
T01890017 $





000
SAUS46 KLOX 290455
MTR9L2
METAR K9L2 290455Z AUTO 00000KT 10SM CLR 19/02 A3007 RMK AO2 SLP170
T01890017 $





000
SAUS46 KLOX 290454
MTRMWS
METAR KMWS 290445Z 18004G06KT 12/M11 RMK SNOW DEPTH 3.00





000
SAUS46 KLOX 290454
MTRMWS
METAR KMWS 290445Z 18004G06KT 12/M11 RMK SNOW DEPTH 3.00





000
SAUS46 KLOX 290449
MTRSDB
METAR KSDB 290448Z AUTO 32007KT 10SM CLR 16/02 A3020 RMK AO2 SLP181
T01610017 $





000
SAUS46 KLOX 290448
MTRCQT
METAR KCQT 290447Z AUTO 00000KT 8SM CLR 17/14 A3004 RMK AO2 SLP170
T01720144





000
SAUS46 KLOX 290436
MTRMWS
METAR KMWS 290430Z 23500G00KT MM/M10 RMK SNOW DEPTH 2.00





000
SAUS46 KLOX 290436
MTRMWS
METAR KMWS 290430Z 23500G00KT MM/M10 RMK SNOW DEPTH 2.00





000
SAUS46 KLOX 290415
MTRMWS
METAR KMWS 290400Z 18005G06KT 13/M09 RMK SNOW DEPTH 3.00





000
SAUS46 KLOX 290356
MTR9L2
METAR K9L2 290355Z AUTO 25012KT 10SM CLR 20/02 A3005 RMK AO2 SLP165
T02000022 $





000
SAUS46 KLOX 290354
MTRMWS
METAR KMWS 290345Z 16503G06KT 12/M07 RMK SNOW DEPTH 3.00





000
SAUS46 KLOX 290354
MTRMWS
METAR KMWS 290345Z 16503G06KT 12/M07 RMK SNOW DEPTH 3.00





000
SAUS46 KLOX 290349
MTRSDB
METAR KSDB 290348Z AUTO 22003KT 10SM CLR 17/M01 A3020 RMK AO2 SLP181
T01721006 $





000
SAUS46 KLOX 290348
MTRCQT
METAR KCQT 290347Z AUTO 00000KT 8SM CLR 17/14 A3003 RMK AO2 SLP166
T01720144





000
SAUS46 KLOX 290336
MTRMWS
METAR KMWS 290330Z 23500G00KT MM/M09 RMK SNOW DEPTH 3.00





    US Dept of Commerce
    National Oceanic and Atmospheric Administration
    National Weather Service
    1325 East West Highway
    Silver Spring, MD 20910
    Page Author: NWS Internet Services Team
Disclaimer
Information Quality
Credits
Glossary
Privacy Policy
Freedom of Information Act (FOIA)
About Us
Career Opportunities